<?xml version="1.0" encoding="UTF-8" standalone="no" ?>
<gpx xmlns="http://www.topografix.com/GPX/1/1" xmlns:xsi="http://www.w3.org/2001/XMLSchema-instance" xsi:schemaLocation="http://www.topografix.com/GPX/1/1 http://www.topografix.com/GPX/1/1/gpx.xsd" version="1.1" creator="VisuGPX - https://www.visugpx.com">
  <metadata>
    <name>Hameau de Douch - Montagne d'Aret</name>
    <desc><![CDATA[2016-11 - Hameau de Douch - Montagne d'Aret

[b]album[/b] : [url]https://goo.gl/photos/pdKjrMPCXByix4TR9[/url]
[img]https://4.bp.blogspot.com/-wx32q_N_Umo/WOaADYhd4oI/AAAAAAAAR_0/IZoclCMZjRwAvkxoaEnDe9GKNFkXuh5kQCLcB/s1600/2016-11_douch_aret_i.JPG[/img]
[b]Idées de randonnées dans la même région[/b]
Parcours : [url]https://www.visugpx.com/membres/24856/montagne/haut-languedoc/[/url]
Photos : [url]https://jcvertygo.blogspot.com/p/haut-languedoc.html[/url]]]></desc>
  </metadata>
  <trk>
    <name><![CDATA[Hameau de Douch - Montagne d'Aret_1]]></name>
    <trkseg>
      <trkpt lat="43.60867" lon="2.96942">
        <ele>903.8</ele>
        <time>2016-11-12T09:10:56Z</time>
      </trkpt>
      <trkpt lat="43.60798" lon="2.96922">
        <ele>925.0267961823</ele>
        <time>2016-11-12T09:11:18Z</time>
      </trkpt>
      <trkpt lat="43.60796" lon="2.96924">
        <ele>925.0267961823</ele>
        <time>2016-11-12T09:11:54Z</time>
      </trkpt>
      <trkpt lat="43.60796" lon="2.96924">
        <ele>925.0267961823</ele>
        <time>2016-11-12T09:11:55Z</time>
      </trkpt>
      <trkpt lat="43.60796" lon="2.96924">
        <ele>925.0267961823</ele>
        <time>2016-11-12T09:12:02Z</time>
      </trkpt>
      <trkpt lat="43.60803" lon="2.96936">
        <ele>936.23284576553</ele>
        <time>2016-11-12T09:12:45Z</time>
      </trkpt>
      <trkpt lat="43.60829" lon="2.96951">
        <ele>943.35841833371</ele>
        <time>2016-11-12T09:13:57Z</time>
      </trkpt>
      <trkpt lat="43.60849" lon="2.96941">
        <ele>949.23115242686</ele>
        <time>2016-11-12T09:14:27Z</time>
      </trkpt>
      <trkpt lat="43.60863" lon="2.96934">
        <ele>954.2701416186</ele>
        <time>2016-11-12T09:14:40Z</time>
      </trkpt>
      <trkpt lat="43.60875" lon="2.96914">
        <ele>959.41077175049</ele>
        <time>2016-11-12T09:15:55Z</time>
      </trkpt>
      <trkpt lat="43.60877" lon="2.9691">
        <ele>959.41077175049</ele>
        <time>2016-11-12T09:16:00Z</time>
      </trkpt>
      <trkpt lat="43.60893" lon="2.96884">
        <ele>964.12314434237</ele>
        <time>2016-11-12T09:16:38Z</time>
      </trkpt>
      <trkpt lat="43.60928" lon="2.96848">
        <ele>968.96315036419</ele>
        <time>2016-11-12T09:17:38Z</time>
      </trkpt>
      <trkpt lat="43.60939" lon="2.96845">
        <ele>973.16903851102</ele>
        <time>2016-11-12T09:17:46Z</time>
      </trkpt>
      <trkpt lat="43.60981" lon="2.96766">
        <ele>977.97726411851</ele>
        <time>2016-11-12T09:20:00Z</time>
      </trkpt>
      <trkpt lat="43.60987" lon="2.9675">
        <ele>981.92509946033</ele>
        <time>2016-11-12T09:20:23Z</time>
      </trkpt>
      <trkpt lat="43.60989" lon="2.96742">
        <ele>981.92509946033</ele>
        <time>2016-11-12T09:20:23Z</time>
      </trkpt>
      <trkpt lat="43.60992" lon="2.96734">
        <ele>985.20781707615</ele>
        <time>2016-11-12T09:20:57Z</time>
      </trkpt>
      <trkpt lat="43.60993" lon="2.96733">
        <ele>985.20781707615</ele>
        <time>2016-11-12T09:20:58Z</time>
      </trkpt>
      <trkpt lat="43.60996" lon="2.96726">
        <ele>985.20781707615</ele>
        <time>2016-11-12T09:21:22Z</time>
      </trkpt>
      <trkpt lat="43.61001" lon="2.96686">
        <ele>987.92487747544</ele>
        <time>2016-11-12T09:22:02Z</time>
      </trkpt>
      <trkpt lat="43.60999" lon="2.9667">
        <ele>989.83230327397</ele>
        <time>2016-11-12T09:23:09Z</time>
      </trkpt>
      <trkpt lat="43.60992" lon="2.96661">
        <ele>991.58404626973</ele>
        <time>2016-11-12T09:29:00Z</time>
      </trkpt>
      <trkpt lat="43.60986" lon="2.96663">
        <ele>991.58404626973</ele>
        <time>2016-11-12T09:29:42Z</time>
      </trkpt>
      <trkpt lat="43.60992" lon="2.96664">
        <ele>992.41779350348</ele>
        <time>2016-11-12T09:30:03Z</time>
      </trkpt>
      <trkpt lat="43.61001" lon="2.96667">
        <ele>992.89962607922</ele>
        <time>2016-11-12T09:30:29Z</time>
      </trkpt>
      <trkpt lat="43.61002" lon="2.96711">
        <ele>992.94795248947</ele>
        <time>2016-11-12T09:31:57Z</time>
      </trkpt>
      <trkpt lat="43.61004" lon="2.96709">
        <ele>992.94795248947</ele>
        <time>2016-11-12T09:32:00Z</time>
      </trkpt>
      <trkpt lat="43.61006" lon="2.96704">
        <ele>992.94795248947</ele>
        <time>2016-11-12T09:32:10Z</time>
      </trkpt>
      <trkpt lat="43.61009" lon="2.96698">
        <ele>992.61523819477</ele>
        <time>2016-11-12T09:32:25Z</time>
      </trkpt>
      <trkpt lat="43.61042" lon="2.96669">
        <ele>991.75517384808</ele>
        <time>2016-11-12T09:33:15Z</time>
      </trkpt>
      <trkpt lat="43.61046" lon="2.96652">
        <ele>990.59232111801</ele>
        <time>2016-11-12T09:33:32Z</time>
      </trkpt>
      <trkpt lat="43.61051" lon="2.96636">
        <ele>989.2416142582</ele>
        <time>2016-11-12T09:33:57Z</time>
      </trkpt>
      <trkpt lat="43.61053" lon="2.96635">
        <ele>989.2416142582</ele>
        <time>2016-11-12T09:34:06Z</time>
      </trkpt>
      <trkpt lat="43.61054" lon="2.9663">
        <ele>989.2416142582</ele>
        <time>2016-11-12T09:34:06Z</time>
      </trkpt>
      <trkpt lat="43.61054" lon="2.96618">
        <ele>987.75342226983</ele>
        <time>2016-11-12T09:34:34Z</time>
      </trkpt>
      <trkpt lat="43.61063" lon="2.96583">
        <ele>986.0492053334</ele>
        <time>2016-11-12T09:35:06Z</time>
      </trkpt>
      <trkpt lat="43.61063" lon="2.96578">
        <ele>986.0492053334</ele>
        <time>2016-11-12T09:35:06Z</time>
      </trkpt>
      <trkpt lat="43.61083" lon="2.96526">
        <ele>984.012697541</ele>
        <time>2016-11-12T09:36:00Z</time>
      </trkpt>
      <trkpt lat="43.61083" lon="2.96524">
        <ele>984.012697541</ele>
        <time>2016-11-12T09:36:07Z</time>
      </trkpt>
      <trkpt lat="43.61128" lon="2.96507">
        <ele>981.1638657911</ele>
        <time>2016-11-12T09:37:21Z</time>
      </trkpt>
      <trkpt lat="43.61134" lon="2.96503">
        <ele>981.1638657911</ele>
        <time>2016-11-12T09:37:25Z</time>
      </trkpt>
      <trkpt lat="43.61137" lon="2.965">
        <ele>978.34114240722</ele>
        <time>2016-11-12T09:37:25Z</time>
      </trkpt>
      <trkpt lat="43.61146" lon="2.96496">
        <ele>978.34114240722</ele>
        <time>2016-11-12T09:37:42Z</time>
      </trkpt>
      <trkpt lat="43.61166" lon="2.96483">
        <ele>974.69472899813</ele>
        <time>2016-11-12T09:37:59Z</time>
      </trkpt>
      <trkpt lat="43.61167" lon="2.96483">
        <ele>974.69472899813</ele>
        <time>2016-11-12T09:38:00Z</time>
      </trkpt>
      <trkpt lat="43.61172" lon="2.96477">
        <ele>974.69472899813</ele>
        <time>2016-11-12T09:38:16Z</time>
      </trkpt>
      <trkpt lat="43.61174" lon="2.96468">
        <ele>970.90198381718</ele>
        <time>2016-11-12T09:38:16Z</time>
      </trkpt>
      <trkpt lat="43.61181" lon="2.96464">
        <ele>970.90198381718</ele>
        <time>2016-11-12T09:38:24Z</time>
      </trkpt>
      <trkpt lat="43.61232" lon="2.96369">
        <ele>965.66387877331</ele>
        <time>2016-11-12T09:40:00Z</time>
      </trkpt>
      <trkpt lat="43.61232" lon="2.96361">
        <ele>965.66387877331</ele>
        <time>2016-11-12T09:40:05Z</time>
      </trkpt>
      <trkpt lat="43.61233" lon="2.96348">
        <ele>960.51617520592</ele>
        <time>2016-11-12T09:40:19Z</time>
      </trkpt>
      <trkpt lat="43.61231" lon="2.96342">
        <ele>960.51617520592</ele>
        <time>2016-11-12T09:40:20Z</time>
      </trkpt>
      <trkpt lat="43.61229" lon="2.96306">
        <ele>955.57801639895</ele>
        <time>2016-11-12T09:41:08Z</time>
      </trkpt>
      <trkpt lat="43.61226" lon="2.96302">
        <ele>955.57801639895</ele>
        <time>2016-11-12T09:41:08Z</time>
      </trkpt>
      <trkpt lat="43.61221" lon="2.96296">
        <ele>951.10145305752</ele>
        <time>2016-11-12T09:42:05Z</time>
      </trkpt>
      <trkpt lat="43.61224" lon="2.96297">
        <ele>951.10145305752</ele>
        <time>2016-11-12T09:42:06Z</time>
      </trkpt>
      <trkpt lat="43.61224" lon="2.96298">
        <ele>951.10145305752</ele>
        <time>2016-11-12T09:42:13Z</time>
      </trkpt>
      <trkpt lat="43.61231" lon="2.96316">
        <ele>946.97729537112</ele>
        <time>2016-11-12T09:42:39Z</time>
      </trkpt>
      <trkpt lat="43.61235" lon="2.96324">
        <ele>946.97729537112</ele>
        <time>2016-11-12T09:42:39Z</time>
      </trkpt>
      <trkpt lat="43.61238" lon="2.9633">
        <ele>943.1349677684</ele>
        <time>2016-11-12T09:43:19Z</time>
      </trkpt>
      <trkpt lat="43.61252" lon="2.96353">
        <ele>939.67912344573</ele>
        <time>2016-11-12T09:43:58Z</time>
      </trkpt>
      <trkpt lat="43.61255" lon="2.96354">
        <ele>939.67912344573</ele>
        <time>2016-11-12T09:44:00Z</time>
      </trkpt>
      <trkpt lat="43.61314" lon="2.96372">
        <ele>937.33064090785</ele>
        <time>2016-11-12T09:45:31Z</time>
      </trkpt>
      <trkpt lat="43.61318" lon="2.96378">
        <ele>937.33064090785</ele>
        <time>2016-11-12T09:45:31Z</time>
      </trkpt>
      <trkpt lat="43.61323" lon="2.96398">
        <ele>935.5531812268</ele>
        <time>2016-11-12T09:45:52Z</time>
      </trkpt>
      <trkpt lat="43.61323" lon="2.96402">
        <ele>935.5531812268</ele>
        <time>2016-11-12T09:45:52Z</time>
      </trkpt>
      <trkpt lat="43.61324" lon="2.96406">
        <ele>935.5531812268</ele>
        <time>2016-11-12T09:45:56Z</time>
      </trkpt>
      <trkpt lat="43.61339" lon="2.96435">
        <ele>934.36575727167</ele>
        <time>2016-11-12T09:46:22Z</time>
      </trkpt>
      <trkpt lat="43.61342" lon="2.96443">
        <ele>934.36575727167</ele>
        <time>2016-11-12T09:46:38Z</time>
      </trkpt>
      <trkpt lat="43.61346" lon="2.96448">
        <ele>933.46863523443</ele>
        <time>2016-11-12T09:46:38Z</time>
      </trkpt>
      <trkpt lat="43.614" lon="2.96492">
        <ele>933.34249601499</ele>
        <time>2016-11-12T09:47:55Z</time>
      </trkpt>
      <trkpt lat="43.61403" lon="2.96496">
        <ele>933.34249601499</ele>
        <time>2016-11-12T09:47:55Z</time>
      </trkpt>
      <trkpt lat="43.61456" lon="2.96539">
        <ele>933.44933641835</ele>
        <time>2016-11-12T09:49:01Z</time>
      </trkpt>
      <trkpt lat="43.61457" lon="2.9654">
        <ele>933.44933641835</ele>
        <time>2016-11-12T09:49:08Z</time>
      </trkpt>
      <trkpt lat="43.61467" lon="2.96554">
        <ele>933.77513693441</ele>
        <time>2016-11-12T09:50:03Z</time>
      </trkpt>
      <trkpt lat="43.61529" lon="2.96593">
        <ele>934.28999955096</ele>
        <time>2016-11-12T09:51:58Z</time>
      </trkpt>
      <trkpt lat="43.61529" lon="2.96594">
        <ele>934.28999955096</ele>
        <time>2016-11-12T09:52:00Z</time>
      </trkpt>
      <trkpt lat="43.6153" lon="2.96594">
        <ele>934.28999955096</ele>
        <time>2016-11-12T09:52:07Z</time>
      </trkpt>
      <trkpt lat="43.6153" lon="2.96594">
        <ele>934.28999955096</ele>
        <time>2016-11-12T09:52:17Z</time>
      </trkpt>
      <trkpt lat="43.6153" lon="2.96594">
        <ele>934.28999955096</ele>
        <time>2016-11-12T09:52:20Z</time>
      </trkpt>
      <trkpt lat="43.61532" lon="2.96598">
        <ele>934.28999955096</ele>
        <time>2016-11-12T09:52:25Z</time>
      </trkpt>
      <trkpt lat="43.61544" lon="2.96616">
        <ele>935.60167045169</ele>
        <time>2016-11-12T09:53:13Z</time>
      </trkpt>
      <trkpt lat="43.61545" lon="2.96615">
        <ele>935.60167045169</ele>
        <time>2016-11-12T09:53:15Z</time>
      </trkpt>
      <trkpt lat="43.61552" lon="2.96602">
        <ele>936.99685476581</ele>
        <time>2016-11-12T09:53:25Z</time>
      </trkpt>
      <trkpt lat="43.61555" lon="2.96596">
        <ele>936.99685476581</ele>
        <time>2016-11-12T09:53:30Z</time>
      </trkpt>
      <trkpt lat="43.61557" lon="2.96588">
        <ele>938.22268629615</ele>
        <time>2016-11-12T09:53:35Z</time>
      </trkpt>
      <trkpt lat="43.6156" lon="2.96581">
        <ele>938.22268629615</ele>
        <time>2016-11-12T09:53:40Z</time>
      </trkpt>
      <trkpt lat="43.61563" lon="2.96575">
        <ele>939.23823278562</ele>
        <time>2016-11-12T09:53:45Z</time>
      </trkpt>
      <trkpt lat="43.61566" lon="2.9657">
        <ele>939.23823278562</ele>
        <time>2016-11-12T09:53:50Z</time>
      </trkpt>
      <trkpt lat="43.61567" lon="2.96564">
        <ele>940.03683950539</ele>
        <time>2016-11-12T09:53:55Z</time>
      </trkpt>
      <trkpt lat="43.61569" lon="2.96563">
        <ele>940.03683950539</ele>
        <time>2016-11-12T09:54:00Z</time>
      </trkpt>
      <trkpt lat="43.61568" lon="2.96562">
        <ele>940.03683950539</ele>
        <time>2016-11-12T09:56:00Z</time>
      </trkpt>
      <trkpt lat="43.61567" lon="2.96561">
        <ele>940.03683950539</ele>
        <time>2016-11-12T09:56:05Z</time>
      </trkpt>
      <trkpt lat="43.61566" lon="2.96564">
        <ele>940.03683950539</ele>
        <time>2016-11-12T09:58:31Z</time>
      </trkpt>
      <trkpt lat="43.61584" lon="2.9653">
        <ele>941.95524270763</ele>
        <time>2016-11-12T10:01:06Z</time>
      </trkpt>
      <trkpt lat="43.61586" lon="2.96522">
        <ele>941.95524270763</ele>
        <time>2016-11-12T10:01:33Z</time>
      </trkpt>
      <trkpt lat="43.61603" lon="2.96495">
        <ele>944.10256525883</ele>
        <time>2016-11-12T10:02:00Z</time>
      </trkpt>
      <trkpt lat="43.6161" lon="2.96489">
        <ele>944.10256525883</ele>
        <time>2016-11-12T10:02:15Z</time>
      </trkpt>
      <trkpt lat="43.61618" lon="2.96483">
        <ele>946.40635530272</ele>
        <time>2016-11-12T10:02:40Z</time>
      </trkpt>
      <trkpt lat="43.61627" lon="2.9647">
        <ele>948.78416263083</ele>
        <time>2016-11-12T10:02:58Z</time>
      </trkpt>
      <trkpt lat="43.61628" lon="2.96469">
        <ele>948.78416263083</ele>
        <time>2016-11-12T10:03:00Z</time>
      </trkpt>
      <trkpt lat="43.61648" lon="2.96457">
        <ele>952.48782368722</ele>
        <time>2016-11-12T10:05:09Z</time>
      </trkpt>
      <trkpt lat="43.61676" lon="2.96452">
        <ele>957.32358885699</ele>
        <time>2016-11-12T10:05:59Z</time>
      </trkpt>
      <trkpt lat="43.61676" lon="2.96452">
        <ele>957.32358885699</ele>
        <time>2016-11-12T10:06:00Z</time>
      </trkpt>
      <trkpt lat="43.61686" lon="2.96451">
        <ele>962.03994789233</ele>
        <time>2016-11-12T10:06:19Z</time>
      </trkpt>
      <trkpt lat="43.61697" lon="2.96453">
        <ele>967.32168658033</ele>
        <time>2016-11-12T10:07:00Z</time>
      </trkpt>
      <trkpt lat="43.61708" lon="2.9645">
        <ele>972.82108766149</ele>
        <time>2016-11-12T10:08:37Z</time>
      </trkpt>
      <trkpt lat="43.61715" lon="2.96444">
        <ele>972.82108766149</ele>
        <time>2016-11-12T10:09:05Z</time>
      </trkpt>
      <trkpt lat="43.61718" lon="2.96442">
        <ele>977.92002901411</ele>
        <time>2016-11-12T10:09:07Z</time>
      </trkpt>
      <trkpt lat="43.61729" lon="2.96436">
        <ele>982.68133920989</ele>
        <time>2016-11-12T10:09:25Z</time>
      </trkpt>
      <trkpt lat="43.61732" lon="2.96433">
        <ele>982.68133920989</ele>
        <time>2016-11-12T10:09:45Z</time>
      </trkpt>
      <trkpt lat="43.6174" lon="2.96424">
        <ele>987.7154484011</ele>
        <time>2016-11-12T10:10:00Z</time>
      </trkpt>
      <trkpt lat="43.61751" lon="2.96416">
        <ele>992.37773403378</ele>
        <time>2016-11-12T10:10:19Z</time>
      </trkpt>
      <trkpt lat="43.61755" lon="2.96415">
        <ele>992.37773403378</ele>
        <time>2016-11-12T10:10:20Z</time>
      </trkpt>
      <trkpt lat="43.61757" lon="2.96416">
        <ele>992.37773403378</ele>
        <time>2016-11-12T10:10:35Z</time>
      </trkpt>
      <trkpt lat="43.6178" lon="2.96408">
        <ele>997.398386208</ele>
        <time>2016-11-12T10:11:56Z</time>
      </trkpt>
      <trkpt lat="43.6178" lon="2.96408">
        <ele>997.398386208</ele>
        <time>2016-11-12T10:12:00Z</time>
      </trkpt>
      <trkpt lat="43.61794" lon="2.96404">
        <ele>1002.1890986008</ele>
        <time>2016-11-12T10:13:47Z</time>
      </trkpt>
      <trkpt lat="43.618" lon="2.96399">
        <ele>1002.1890986008</ele>
        <time>2016-11-12T10:14:00Z</time>
      </trkpt>
      <trkpt lat="43.61812" lon="2.96393">
        <ele>1007.0672200941</ele>
        <time>2016-11-12T10:14:55Z</time>
      </trkpt>
      <trkpt lat="43.61814" lon="2.96394">
        <ele>1007.0672200941</ele>
        <time>2016-11-12T10:14:55Z</time>
      </trkpt>
      <trkpt lat="43.61859" lon="2.96376">
        <ele>1012.014766703</ele>
        <time>2016-11-12T10:16:01Z</time>
      </trkpt>
      <trkpt lat="43.61862" lon="2.96375">
        <ele>1012.014766703</ele>
        <time>2016-11-12T10:16:05Z</time>
      </trkpt>
      <trkpt lat="43.61868" lon="2.96367">
        <ele>1016.4869801869</ele>
        <time>2016-11-12T10:16:13Z</time>
      </trkpt>
      <trkpt lat="43.61869" lon="2.96366">
        <ele>1016.4869801869</ele>
        <time>2016-11-12T10:16:15Z</time>
      </trkpt>
      <trkpt lat="43.61873" lon="2.96364">
        <ele>1016.4869801869</ele>
        <time>2016-11-12T10:16:20Z</time>
      </trkpt>
      <trkpt lat="43.6188" lon="2.96364">
        <ele>1020.5860417039</ele>
        <time>2016-11-12T10:16:32Z</time>
      </trkpt>
      <trkpt lat="43.61887" lon="2.96361">
        <ele>1020.5860417039</ele>
        <time>2016-11-12T10:16:45Z</time>
      </trkpt>
      <trkpt lat="43.61893" lon="2.96356">
        <ele>1025.1523355867</ele>
        <time>2016-11-12T10:19:00Z</time>
      </trkpt>
      <trkpt lat="43.61896" lon="2.96354">
        <ele>1025.1523355867</ele>
        <time>2016-11-12T10:19:05Z</time>
      </trkpt>
      <trkpt lat="43.61899" lon="2.96352">
        <ele>1025.1523355867</ele>
        <time>2016-11-12T10:19:10Z</time>
      </trkpt>
      <trkpt lat="43.61902" lon="2.96349">
        <ele>1029.2645085839</ele>
        <time>2016-11-12T10:19:15Z</time>
      </trkpt>
      <trkpt lat="43.61904" lon="2.96348">
        <ele>1029.2645085839</ele>
        <time>2016-11-12T10:19:20Z</time>
      </trkpt>
      <trkpt lat="43.61908" lon="2.96346">
        <ele>1029.2645085839</ele>
        <time>2016-11-12T10:19:25Z</time>
      </trkpt>
      <trkpt lat="43.61909" lon="2.96346">
        <ele>1029.2645085839</ele>
        <time>2016-11-12T10:19:30Z</time>
      </trkpt>
      <trkpt lat="43.61911" lon="2.96345">
        <ele>1032.7906709046</ele>
        <time>2016-11-12T10:19:40Z</time>
      </trkpt>
      <trkpt lat="43.61926" lon="2.9634">
        <ele>1035.7855146101</ele>
        <time>2016-11-12T10:20:01Z</time>
      </trkpt>
      <trkpt lat="43.61928" lon="2.96341">
        <ele>1035.7855146101</ele>
        <time>2016-11-12T10:20:05Z</time>
      </trkpt>
      <trkpt lat="43.6197" lon="2.96324">
        <ele>1037.3858691801</ele>
        <time>2016-11-12T10:21:25Z</time>
      </trkpt>
      <trkpt lat="43.62021" lon="2.96309">
        <ele>1037.684685729</ele>
        <time>2016-11-12T10:22:44Z</time>
      </trkpt>
      <trkpt lat="43.62021" lon="2.96309">
        <ele>1037.684685729</ele>
        <time>2016-11-12T10:22:46Z</time>
      </trkpt>
      <trkpt lat="43.62045" lon="2.96302">
        <ele>1037.4660815049</ele>
        <time>2016-11-12T10:23:51Z</time>
      </trkpt>
      <trkpt lat="43.62052" lon="2.963">
        <ele>1037.4660815049</ele>
        <time>2016-11-12T10:23:59Z</time>
      </trkpt>
      <trkpt lat="43.62053" lon="2.96299">
        <ele>1037.4660815049</ele>
        <time>2016-11-12T10:24:00Z</time>
      </trkpt>
      <trkpt lat="43.6206" lon="2.96295">
        <ele>1036.9624992121</ele>
        <time>2016-11-12T10:24:15Z</time>
      </trkpt>
      <trkpt lat="43.62063" lon="2.96294">
        <ele>1036.9624992121</ele>
        <time>2016-11-12T10:24:20Z</time>
      </trkpt>
      <trkpt lat="43.6207" lon="2.96292">
        <ele>1036.1435233552</ele>
        <time>2016-11-12T10:24:43Z</time>
      </trkpt>
      <trkpt lat="43.62074" lon="2.96291">
        <ele>1036.1435233552</ele>
        <time>2016-11-12T10:24:51Z</time>
      </trkpt>
      <trkpt lat="43.62075" lon="2.9629">
        <ele>1036.1435233552</ele>
        <time>2016-11-12T10:24:55Z</time>
      </trkpt>
      <trkpt lat="43.62078" lon="2.96291">
        <ele>1036.1435233552</ele>
        <time>2016-11-12T10:25:00Z</time>
      </trkpt>
      <trkpt lat="43.62081" lon="2.96288">
        <ele>1034.953168773</ele>
        <time>2016-11-12T10:25:05Z</time>
      </trkpt>
      <trkpt lat="43.62091" lon="2.96277">
        <ele>1033.5574739341</ele>
        <time>2016-11-12T10:25:21Z</time>
      </trkpt>
      <trkpt lat="43.62095" lon="2.96262">
        <ele>1031.9373935794</ele>
        <time>2016-11-12T10:26:00Z</time>
      </trkpt>
      <trkpt lat="43.62108" lon="2.96267">
        <ele>1030.1482107657</ele>
        <time>2016-11-12T10:26:33Z</time>
      </trkpt>
      <trkpt lat="43.62111" lon="2.96257">
        <ele>1030.1482107657</ele>
        <time>2016-11-12T10:26:56Z</time>
      </trkpt>
      <trkpt lat="43.62111" lon="2.96252">
        <ele>1028.3281999682</ele>
        <time>2016-11-12T10:26:56Z</time>
      </trkpt>
      <trkpt lat="43.62111" lon="2.9625">
        <ele>1028.3281999682</ele>
        <time>2016-11-12T10:27:00Z</time>
      </trkpt>
      <trkpt lat="43.6212" lon="2.96253">
        <ele>1026.5189853723</ele>
        <time>2016-11-12T10:27:58Z</time>
      </trkpt>
      <trkpt lat="43.62121" lon="2.96258">
        <ele>1026.5189853723</ele>
        <time>2016-11-12T10:27:59Z</time>
      </trkpt>
      <trkpt lat="43.62165" lon="2.96252">
        <ele>1024.3698063179</ele>
        <time>2016-11-12T10:28:55Z</time>
      </trkpt>
      <trkpt lat="43.62175" lon="2.96247">
        <ele>1022.2777445523</ele>
        <time>2016-11-12T10:29:15Z</time>
      </trkpt>
      <trkpt lat="43.62184" lon="2.96246">
        <ele>1020.4662044312</ele>
        <time>2016-11-12T10:29:41Z</time>
      </trkpt>
      <trkpt lat="43.6218" lon="2.96246">
        <ele>1020.4662044312</ele>
        <time>2016-11-12T10:29:56Z</time>
      </trkpt>
      <trkpt lat="43.62189" lon="2.96246">
        <ele>1019.5594421833</ele>
        <time>2016-11-12T10:30:23Z</time>
      </trkpt>
      <trkpt lat="43.62207" lon="2.96243">
        <ele>1018.8500880255</ele>
        <time>2016-11-12T10:30:50Z</time>
      </trkpt>
      <trkpt lat="43.62221" lon="2.96264">
        <ele>1018.2732455514</ele>
        <time>2016-11-12T10:31:32Z</time>
      </trkpt>
      <trkpt lat="43.62225" lon="2.96267">
        <ele>1018.2732455514</ele>
        <time>2016-11-12T10:32:00Z</time>
      </trkpt>
      <trkpt lat="43.62225" lon="2.96266">
        <ele>1018.2732455514</ele>
        <time>2016-11-12T10:32:08Z</time>
      </trkpt>
      <trkpt lat="43.62224" lon="2.96272">
        <ele>1018.0999019077</ele>
        <time>2016-11-12T10:34:49Z</time>
      </trkpt>
      <trkpt lat="43.62219" lon="2.96272">
        <ele>1018.0999019077</ele>
        <time>2016-11-12T10:36:00Z</time>
      </trkpt>
      <trkpt lat="43.6223" lon="2.96274">
        <ele>1018.6231433522</ele>
        <time>2016-11-12T10:36:24Z</time>
      </trkpt>
      <trkpt lat="43.6223" lon="2.96275">
        <ele>1018.6231433522</ele>
        <time>2016-11-12T10:36:25Z</time>
      </trkpt>
      <trkpt lat="43.62234" lon="2.96282">
        <ele>1018.6231433522</ele>
        <time>2016-11-12T10:36:32Z</time>
      </trkpt>
      <trkpt lat="43.62235" lon="2.96284">
        <ele>1018.6231433522</ele>
        <time>2016-11-12T10:37:00Z</time>
      </trkpt>
      <trkpt lat="43.62232" lon="2.96299">
        <ele>1018.5694823658</ele>
        <time>2016-11-12T10:37:51Z</time>
      </trkpt>
      <trkpt lat="43.62237" lon="2.96307">
        <ele>1018.5694823658</ele>
        <time>2016-11-12T10:37:51Z</time>
      </trkpt>
      <trkpt lat="43.62238" lon="2.96312">
        <ele>1018.3321345571</ele>
        <time>2016-11-12T10:38:00Z</time>
      </trkpt>
      <trkpt lat="43.62258" lon="2.96334">
        <ele>1017.8287473783</ele>
        <time>2016-11-12T10:39:00Z</time>
      </trkpt>
      <trkpt lat="43.62259" lon="2.96334">
        <ele>1017.8287473783</ele>
        <time>2016-11-12T10:39:01Z</time>
      </trkpt>
      <trkpt lat="43.62261" lon="2.96334">
        <ele>1017.8287473783</ele>
        <time>2016-11-12T10:39:06Z</time>
      </trkpt>
      <trkpt lat="43.62266" lon="2.96335">
        <ele>1017.8287473783</ele>
        <time>2016-11-12T10:39:35Z</time>
      </trkpt>
      <trkpt lat="43.62267" lon="2.9635">
        <ele>1017.4739473479</ele>
        <time>2016-11-12T10:44:00Z</time>
      </trkpt>
      <trkpt lat="43.6227" lon="2.96353">
        <ele>1017.4739473479</ele>
        <time>2016-11-12T10:44:05Z</time>
      </trkpt>
      <trkpt lat="43.62272" lon="2.96353">
        <ele>1017.4739473479</ele>
        <time>2016-11-12T10:44:17Z</time>
      </trkpt>
      <trkpt lat="43.62292" lon="2.96377">
        <ele>1017.2907647042</ele>
        <time>2016-11-12T10:45:40Z</time>
      </trkpt>
      <trkpt lat="43.62296" lon="2.96386">
        <ele>1017.2907647042</ele>
        <time>2016-11-12T10:45:56Z</time>
      </trkpt>
      <trkpt lat="43.62296" lon="2.96387">
        <ele>1017.2907647042</ele>
        <time>2016-11-12T10:45:57Z</time>
      </trkpt>
      <trkpt lat="43.62296" lon="2.96391">
        <ele>1017.1988994027</ele>
        <time>2016-11-12T10:46:01Z</time>
      </trkpt>
      <trkpt lat="43.62299" lon="2.964">
        <ele>1017.1988994027</ele>
        <time>2016-11-12T10:46:15Z</time>
      </trkpt>
      <trkpt lat="43.62299" lon="2.964">
        <ele>1017.1988994027</ele>
        <time>2016-11-12T10:46:20Z</time>
      </trkpt>
      <trkpt lat="43.62307" lon="2.9641">
        <ele>1018.2341555675</ele>
        <time>2016-11-12T10:47:58Z</time>
      </trkpt>
      <trkpt lat="43.62308" lon="2.9641">
        <ele>1018.2341555675</ele>
        <time>2016-11-12T10:47:58Z</time>
      </trkpt>
      <trkpt lat="43.62309" lon="2.96409">
        <ele>1018.2341555675</ele>
        <time>2016-11-12T10:48:05Z</time>
      </trkpt>
      <trkpt lat="43.6231" lon="2.96411">
        <ele>1018.2341555675</ele>
        <time>2016-11-12T10:48:13Z</time>
      </trkpt>
      <trkpt lat="43.62343" lon="2.96424">
        <ele>1019.3767514822</ele>
        <time>2016-11-12T10:49:55Z</time>
      </trkpt>
      <trkpt lat="43.62348" lon="2.96424">
        <ele>1019.3767514822</ele>
        <time>2016-11-12T10:50:04Z</time>
      </trkpt>
      <trkpt lat="43.62369" lon="2.9644">
        <ele>1021.0372432254</ele>
        <time>2016-11-12T10:51:00Z</time>
      </trkpt>
      <trkpt lat="43.62379" lon="2.9645">
        <ele>1023.2049245687</ele>
        <time>2016-11-12T10:52:00Z</time>
      </trkpt>
      <trkpt lat="43.62383" lon="2.96456">
        <ele>1023.2049245687</ele>
        <time>2016-11-12T10:52:00Z</time>
      </trkpt>
      <trkpt lat="43.62402" lon="2.96486">
        <ele>1025.2624822614</ele>
        <time>2016-11-12T10:53:00Z</time>
      </trkpt>
      <trkpt lat="43.62411" lon="2.96503">
        <ele>1027.1430459292</ele>
        <time>2016-11-12T10:53:27Z</time>
      </trkpt>
      <trkpt lat="43.62414" lon="2.96508">
        <ele>1027.1430459292</ele>
        <time>2016-11-12T10:53:27Z</time>
      </trkpt>
      <trkpt lat="43.62418" lon="2.96511">
        <ele>1028.8571869929</ele>
        <time>2016-11-12T10:53:43Z</time>
      </trkpt>
      <trkpt lat="43.62418" lon="2.96511">
        <ele>1028.8571869929</ele>
        <time>2016-11-12T10:53:43Z</time>
      </trkpt>
      <trkpt lat="43.62422" lon="2.9652">
        <ele>1028.8571869929</ele>
        <time>2016-11-12T10:54:08Z</time>
      </trkpt>
      <trkpt lat="43.62432" lon="2.96531">
        <ele>1030.2564336088</ele>
        <time>2016-11-12T10:54:26Z</time>
      </trkpt>
      <trkpt lat="43.62436" lon="2.96539">
        <ele>1030.2564336088</ele>
        <time>2016-11-12T10:54:42Z</time>
      </trkpt>
      <trkpt lat="43.62454" lon="2.96572">
        <ele>1031.1175301915</ele>
        <time>2016-11-12T10:55:08Z</time>
      </trkpt>
      <trkpt lat="43.62472" lon="2.96593">
        <ele>1031.6966131887</ele>
        <time>2016-11-12T10:55:45Z</time>
      </trkpt>
      <trkpt lat="43.62485" lon="2.96599">
        <ele>1032.044211353</ele>
        <time>2016-11-12T10:56:01Z</time>
      </trkpt>
      <trkpt lat="43.62488" lon="2.96599">
        <ele>1032.044211353</ele>
        <time>2016-11-12T10:56:05Z</time>
      </trkpt>
      <trkpt lat="43.62502" lon="2.96602">
        <ele>1032.2509831382</ele>
        <time>2016-11-12T10:56:21Z</time>
      </trkpt>
      <trkpt lat="43.62508" lon="2.96603">
        <ele>1032.2509831382</ele>
        <time>2016-11-12T10:56:24Z</time>
      </trkpt>
      <trkpt lat="43.62545" lon="2.96608">
        <ele>1031.7812013362</ele>
        <time>2016-11-12T10:56:56Z</time>
      </trkpt>
      <trkpt lat="43.62549" lon="2.9661">
        <ele>1031.7812013362</ele>
        <time>2016-11-12T10:57:00Z</time>
      </trkpt>
      <trkpt lat="43.6256" lon="2.96611">
        <ele>1031.2074366963</ele>
        <time>2016-11-12T10:57:17Z</time>
      </trkpt>
      <trkpt lat="43.62568" lon="2.96612">
        <ele>1031.2074366963</ele>
        <time>2016-11-12T10:57:17Z</time>
      </trkpt>
      <trkpt lat="43.62577" lon="2.96612">
        <ele>1030.5556653121</ele>
        <time>2016-11-12T10:57:25Z</time>
      </trkpt>
      <trkpt lat="43.62607" lon="2.96614">
        <ele>1030.6574661414</ele>
        <time>2016-11-12T10:57:57Z</time>
      </trkpt>
      <trkpt lat="43.62612" lon="2.96618">
        <ele>1030.6574661414</ele>
        <time>2016-11-12T10:58:01Z</time>
      </trkpt>
      <trkpt lat="43.62656" lon="2.96632">
        <ele>1031.1420609783</ele>
        <time>2016-11-12T10:58:37Z</time>
      </trkpt>
      <trkpt lat="43.62683" lon="2.96645">
        <ele>1031.8378271568</ele>
        <time>2016-11-12T10:59:00Z</time>
      </trkpt>
      <trkpt lat="43.62717" lon="2.96658">
        <ele>1033.1473176269</ele>
        <time>2016-11-12T10:59:47Z</time>
      </trkpt>
      <trkpt lat="43.62724" lon="2.96659">
        <ele>1033.1473176269</ele>
        <time>2016-11-12T10:59:47Z</time>
      </trkpt>
      <trkpt lat="43.62733" lon="2.96663">
        <ele>1034.5623630091</ele>
        <time>2016-11-12T11:00:00Z</time>
      </trkpt>
      <trkpt lat="43.62733" lon="2.96663">
        <ele>1034.5623630091</ele>
        <time>2016-11-12T11:00:05Z</time>
      </trkpt>
      <trkpt lat="43.62739" lon="2.96667">
        <ele>1034.5623630091</ele>
        <time>2016-11-12T11:00:20Z</time>
      </trkpt>
      <trkpt lat="43.6275" lon="2.96677">
        <ele>1035.9722082958</ele>
        <time>2016-11-12T11:00:51Z</time>
      </trkpt>
      <trkpt lat="43.62753" lon="2.96677">
        <ele>1035.9722082958</ele>
        <time>2016-11-12T11:00:51Z</time>
      </trkpt>
      <trkpt lat="43.62741" lon="2.96664">
        <ele>1037.1877332342</ele>
        <time>2016-11-12T11:01:39Z</time>
      </trkpt>
      <trkpt lat="43.62741" lon="2.96664">
        <ele>1037.1877332342</ele>
        <time>2016-11-12T11:01:39Z</time>
      </trkpt>
      <trkpt lat="43.62739" lon="2.96668">
        <ele>1037.1877332342</ele>
        <time>2016-11-12T11:01:57Z</time>
      </trkpt>
      <trkpt lat="43.6274" lon="2.96669">
        <ele>1037.1877332342</ele>
        <time>2016-11-12T11:03:36Z</time>
      </trkpt>
      <trkpt lat="43.62741" lon="2.96693">
        <ele>1038.1207166588</ele>
        <time>2016-11-12T11:04:06Z</time>
      </trkpt>
      <trkpt lat="43.6273" lon="2.96744">
        <ele>1039.3964182684</ele>
        <time>2016-11-12T11:05:06Z</time>
      </trkpt>
      <trkpt lat="43.62732" lon="2.96748">
        <ele>1039.3964182684</ele>
        <time>2016-11-12T11:05:06Z</time>
      </trkpt>
      <trkpt lat="43.62736" lon="2.96753">
        <ele>1039.3964182684</ele>
        <time>2016-11-12T11:05:23Z</time>
      </trkpt>
      <trkpt lat="43.62742" lon="2.96757">
        <ele>1040.6563010201</ele>
        <time>2016-11-12T11:05:23Z</time>
      </trkpt>
      <trkpt lat="43.62765" lon="2.96781">
        <ele>1041.755583904</ele>
        <time>2016-11-12T11:06:08Z</time>
      </trkpt>
      <trkpt lat="43.62782" lon="2.96796">
        <ele>1042.5173315184</ele>
        <time>2016-11-12T11:06:50Z</time>
      </trkpt>
      <trkpt lat="43.62782" lon="2.96797">
        <ele>1042.5173315184</ele>
        <time>2016-11-12T11:06:51Z</time>
      </trkpt>
      <trkpt lat="43.6279" lon="2.96804">
        <ele>1043.1820832385</ele>
        <time>2016-11-12T11:07:05Z</time>
      </trkpt>
      <trkpt lat="43.62794" lon="2.96807">
        <ele>1043.1820832385</ele>
        <time>2016-11-12T11:07:05Z</time>
      </trkpt>
      <trkpt lat="43.62828" lon="2.96837">
        <ele>1043.7135500867</ele>
        <time>2016-11-12T11:07:47Z</time>
      </trkpt>
      <trkpt lat="43.62833" lon="2.96844">
        <ele>1043.7135500867</ele>
        <time>2016-11-12T11:07:47Z</time>
      </trkpt>
      <trkpt lat="43.62846" lon="2.96853">
        <ele>1044.107301523</ele>
        <time>2016-11-12T11:08:00Z</time>
      </trkpt>
      <trkpt lat="43.62852" lon="2.96857">
        <ele>1044.107301523</ele>
        <time>2016-11-12T11:08:06Z</time>
      </trkpt>
      <trkpt lat="43.6286" lon="2.96866">
        <ele>1044.5757848053</ele>
        <time>2016-11-12T11:08:16Z</time>
      </trkpt>
      <trkpt lat="43.62883" lon="2.96888">
        <ele>1044.9697483431</ele>
        <time>2016-11-12T11:08:40Z</time>
      </trkpt>
      <trkpt lat="43.62901" lon="2.96905">
        <ele>1045.0934645784</ele>
        <time>2016-11-12T11:09:00Z</time>
      </trkpt>
      <trkpt lat="43.62903" lon="2.96908">
        <ele>1045.0934645784</ele>
        <time>2016-11-12T11:09:05Z</time>
      </trkpt>
      <trkpt lat="43.62917" lon="2.96919">
        <ele>1045.1410281046</ele>
        <time>2016-11-12T11:09:22Z</time>
      </trkpt>
      <trkpt lat="43.62926" lon="2.96928">
        <ele>1045.133952035</ele>
        <time>2016-11-12T11:09:22Z</time>
      </trkpt>
      <trkpt lat="43.62932" lon="2.96936">
        <ele>1045.133952035</ele>
        <time>2016-11-12T11:09:34Z</time>
      </trkpt>
      <trkpt lat="43.62936" lon="2.96941">
        <ele>1045.0923078947</ele>
        <time>2016-11-12T11:09:34Z</time>
      </trkpt>
      <trkpt lat="43.62939" lon="2.96943">
        <ele>1045.0923078947</ele>
        <time>2016-11-12T11:09:36Z</time>
      </trkpt>
      <trkpt lat="43.62969" lon="2.96976">
        <ele>1045.2221183447</ele>
        <time>2016-11-12T11:10:08Z</time>
      </trkpt>
      <trkpt lat="43.62982" lon="2.96985">
        <ele>1045.4687789902</ele>
        <time>2016-11-12T11:10:20Z</time>
      </trkpt>
      <trkpt lat="43.63015" lon="2.97017">
        <ele>1046.4298554725</ele>
        <time>2016-11-12T11:11:00Z</time>
      </trkpt>
      <trkpt lat="43.63041" lon="2.97038">
        <ele>1048.1525992632</ele>
        <time>2016-11-12T11:11:55Z</time>
      </trkpt>
      <trkpt lat="43.63043" lon="2.97041">
        <ele>1048.1525992632</ele>
        <time>2016-11-12T11:12:06Z</time>
      </trkpt>
      <trkpt lat="43.6304" lon="2.97042">
        <ele>1048.1525992632</ele>
        <time>2016-11-12T11:12:12Z</time>
      </trkpt>
      <trkpt lat="43.63042" lon="2.97042">
        <ele>1048.1525992632</ele>
        <time>2016-11-12T11:12:22Z</time>
      </trkpt>
      <trkpt lat="43.63043" lon="2.97042">
        <ele>1048.1525992632</ele>
        <time>2016-11-12T11:12:25Z</time>
      </trkpt>
      <trkpt lat="43.63045" lon="2.97042">
        <ele>1050.0733631149</ele>
        <time>2016-11-12T11:12:30Z</time>
      </trkpt>
      <trkpt lat="43.63052" lon="2.97041">
        <ele>1050.0733631149</ele>
        <time>2016-11-12T11:12:44Z</time>
      </trkpt>
      <trkpt lat="43.63057" lon="2.97037">
        <ele>1051.6693393159</ele>
        <time>2016-11-12T11:14:28Z</time>
      </trkpt>
      <trkpt lat="43.63074" lon="2.97035">
        <ele>1052.990257485</ele>
        <time>2016-11-12T11:14:44Z</time>
      </trkpt>
      <trkpt lat="43.63085" lon="2.97034">
        <ele>1054.0685649649</ele>
        <time>2016-11-12T11:15:09Z</time>
      </trkpt>
      <trkpt lat="43.63091" lon="2.97033">
        <ele>1054.0685649649</ele>
        <time>2016-11-12T11:15:09Z</time>
      </trkpt>
      <trkpt lat="43.63092" lon="2.97032">
        <ele>1054.0685649649</ele>
        <time>2016-11-12T11:15:10Z</time>
      </trkpt>
      <trkpt lat="43.63101" lon="2.97033">
        <ele>1055.007080113</ele>
        <time>2016-11-12T11:15:23Z</time>
      </trkpt>
      <trkpt lat="43.63105" lon="2.97032">
        <ele>1055.007080113</ele>
        <time>2016-11-12T11:16:03Z</time>
      </trkpt>
      <trkpt lat="43.63108" lon="2.97032">
        <ele>1055.007080113</ele>
        <time>2016-11-12T11:16:05Z</time>
      </trkpt>
      <trkpt lat="43.63121" lon="2.97029">
        <ele>1055.8582468313</ele>
        <time>2016-11-12T11:16:28Z</time>
      </trkpt>
      <trkpt lat="43.63142" lon="2.97027">
        <ele>1056.5700436965</ele>
        <time>2016-11-12T11:16:44Z</time>
      </trkpt>
      <trkpt lat="43.63142" lon="2.97027">
        <ele>1056.5700436965</ele>
        <time>2016-11-12T11:16:53Z</time>
      </trkpt>
      <trkpt lat="43.6315" lon="2.97025">
        <ele>1056.5700436965</ele>
        <time>2016-11-12T11:16:53Z</time>
      </trkpt>
      <trkpt lat="43.63157" lon="2.97025">
        <ele>1057.0658614495</ele>
        <time>2016-11-12T11:17:00Z</time>
      </trkpt>
      <trkpt lat="43.63159" lon="2.97025">
        <ele>1057.0658614495</ele>
        <time>2016-11-12T11:17:05Z</time>
      </trkpt>
      <trkpt lat="43.63164" lon="2.97024">
        <ele>1057.0658614495</ele>
        <time>2016-11-12T11:17:10Z</time>
      </trkpt>
      <trkpt lat="43.63168" lon="2.97023">
        <ele>1057.2609345508</ele>
        <time>2016-11-12T11:17:15Z</time>
      </trkpt>
      <trkpt lat="43.63172" lon="2.97022">
        <ele>1057.2609345508</ele>
        <time>2016-11-12T11:17:20Z</time>
      </trkpt>
      <trkpt lat="43.63177" lon="2.97022">
        <ele>1057.2609345508</ele>
        <time>2016-11-12T11:17:25Z</time>
      </trkpt>
      <trkpt lat="43.63181" lon="2.97022">
        <ele>1057.4955204841</ele>
        <time>2016-11-12T11:17:30Z</time>
      </trkpt>
      <trkpt lat="43.63186" lon="2.97022">
        <ele>1057.4955204841</ele>
        <time>2016-11-12T11:17:35Z</time>
      </trkpt>
      <trkpt lat="43.6319" lon="2.97022">
        <ele>1057.4955204841</ele>
        <time>2016-11-12T11:17:40Z</time>
      </trkpt>
      <trkpt lat="43.63191" lon="2.97022">
        <ele>1057.7244988013</ele>
        <time>2016-11-12T11:17:45Z</time>
      </trkpt>
      <trkpt lat="43.63195" lon="2.9702">
        <ele>1057.7244988013</ele>
        <time>2016-11-12T11:17:50Z</time>
      </trkpt>
      <trkpt lat="43.632" lon="2.97019">
        <ele>1057.7244988013</ele>
        <time>2016-11-12T11:17:55Z</time>
      </trkpt>
      <trkpt lat="43.632" lon="2.97019">
        <ele>1058.0213829201</ele>
        <time>2016-11-12T11:18:00Z</time>
      </trkpt>
      <trkpt lat="43.63205" lon="2.97018">
        <ele>1058.0213829201</ele>
        <time>2016-11-12T11:18:07Z</time>
      </trkpt>
      <trkpt lat="43.63226" lon="2.97015">
        <ele>1058.3820458186</ele>
        <time>2016-11-12T11:18:39Z</time>
      </trkpt>
      <trkpt lat="43.63236" lon="2.97011">
        <ele>1058.5863173427</ele>
        <time>2016-11-12T11:18:39Z</time>
      </trkpt>
      <trkpt lat="43.63298" lon="2.96999">
        <ele>1059.0215112919</ele>
        <time>2016-11-12T11:19:48Z</time>
      </trkpt>
      <trkpt lat="43.63325" lon="2.96993">
        <ele>1059.4693821838</ele>
        <time>2016-11-12T11:20:03Z</time>
      </trkpt>
      <trkpt lat="43.63385" lon="2.97013">
        <ele>1060.1600221647</ele>
        <time>2016-11-12T11:21:01Z</time>
      </trkpt>
      <trkpt lat="43.6344" lon="2.97063">
        <ele>1060.7438914396</ele>
        <time>2016-11-12T11:22:07Z</time>
      </trkpt>
      <trkpt lat="43.63436" lon="2.97075">
        <ele>1061.1712410833</ele>
        <time>2016-11-12T11:22:54Z</time>
      </trkpt>
      <trkpt lat="43.6344" lon="2.97075">
        <ele>1061.1712410833</ele>
        <time>2016-11-12T11:26:55Z</time>
      </trkpt>
      <trkpt lat="43.63435" lon="2.97077">
        <ele>1061.1712410833</ele>
        <time>2016-11-12T11:30:00Z</time>
      </trkpt>
      <trkpt lat="43.63432" lon="2.9708">
        <ele>1061.4396458935</ele>
        <time>2016-11-12T11:31:00Z</time>
      </trkpt>
      <trkpt lat="43.63433" lon="2.97092">
        <ele>1061.4396458935</ele>
        <time>2016-11-12T11:35:12Z</time>
      </trkpt>
      <trkpt lat="43.63433" lon="2.97089">
        <ele>1061.5905332726</ele>
        <time>2016-11-12T11:35:51Z</time>
      </trkpt>
      <trkpt lat="43.63433" lon="2.9709">
        <ele>1061.5905332726</ele>
        <time>2016-11-12T11:36:06Z</time>
      </trkpt>
      <trkpt lat="43.63434" lon="2.97127">
        <ele>1061.4896733319</ele>
        <time>2016-11-12T11:37:00Z</time>
      </trkpt>
      <trkpt lat="43.63429" lon="2.97174">
        <ele>1061.0710369377</ele>
        <time>2016-11-12T11:37:42Z</time>
      </trkpt>
      <trkpt lat="43.63427" lon="2.97183">
        <ele>1061.0710369377</ele>
        <time>2016-11-12T11:37:43Z</time>
      </trkpt>
      <trkpt lat="43.63427" lon="2.97187">
        <ele>1060.5769567948</ele>
        <time>2016-11-12T11:37:46Z</time>
      </trkpt>
      <trkpt lat="43.63428" lon="2.97204">
        <ele>1059.987160079</ele>
        <time>2016-11-12T11:38:02Z</time>
      </trkpt>
      <trkpt lat="43.63429" lon="2.97211">
        <ele>1059.987160079</ele>
        <time>2016-11-12T11:38:07Z</time>
      </trkpt>
      <trkpt lat="43.6343" lon="2.97241">
        <ele>1059.2254565213</ele>
        <time>2016-11-12T11:38:38Z</time>
      </trkpt>
      <trkpt lat="43.63446" lon="2.97347">
        <ele>1057.7893597948</ele>
        <time>2016-11-12T11:39:57Z</time>
      </trkpt>
      <trkpt lat="43.63451" lon="2.9736">
        <ele>1056.2239246039</ele>
        <time>2016-11-12T11:40:04Z</time>
      </trkpt>
      <trkpt lat="43.63451" lon="2.97362">
        <ele>1056.2239246039</ele>
        <time>2016-11-12T11:40:05Z</time>
      </trkpt>
      <trkpt lat="43.6345" lon="2.97368">
        <ele>1056.2239246039</ele>
        <time>2016-11-12T11:40:10Z</time>
      </trkpt>
      <trkpt lat="43.63449" lon="2.97374">
        <ele>1054.544486635</ele>
        <time>2016-11-12T11:40:20Z</time>
      </trkpt>
      <trkpt lat="43.63455" lon="2.97378">
        <ele>1054.544486635</ele>
        <time>2016-11-12T11:42:05Z</time>
      </trkpt>
      <trkpt lat="43.63457" lon="2.97379">
        <ele>1054.544486635</ele>
        <time>2016-11-12T11:42:05Z</time>
      </trkpt>
      <trkpt lat="43.63468" lon="2.9739">
        <ele>1051.598195407</ele>
        <time>2016-11-12T11:42:31Z</time>
      </trkpt>
      <trkpt lat="43.63473" lon="2.97396">
        <ele>1051.598195407</ele>
        <time>2016-11-12T11:42:31Z</time>
      </trkpt>
      <trkpt lat="43.63506" lon="2.97425">
        <ele>1048.0352821302</ele>
        <time>2016-11-12T11:43:16Z</time>
      </trkpt>
      <trkpt lat="43.63531" lon="2.97449">
        <ele>1044.2868952125</ele>
        <time>2016-11-12T11:43:51Z</time>
      </trkpt>
      <trkpt lat="43.63538" lon="2.97454">
        <ele>1044.2868952125</ele>
        <time>2016-11-12T11:44:05Z</time>
      </trkpt>
      <trkpt lat="43.63563" lon="2.97455">
        <ele>1039.787349028</ele>
        <time>2016-11-12T11:44:42Z</time>
      </trkpt>
      <trkpt lat="43.63569" lon="2.97457">
        <ele>1039.787349028</ele>
        <time>2016-11-12T11:44:42Z</time>
      </trkpt>
      <trkpt lat="43.63579" lon="2.97467">
        <ele>1034.9367733538</ele>
        <time>2016-11-12T11:45:20Z</time>
      </trkpt>
      <trkpt lat="43.63555" lon="2.97483">
        <ele>1030.1787569296</ele>
        <time>2016-11-12T11:46:04Z</time>
      </trkpt>
      <trkpt lat="43.63553" lon="2.97484">
        <ele>1030.1787569296</ele>
        <time>2016-11-12T11:46:05Z</time>
      </trkpt>
      <trkpt lat="43.63548" lon="2.97484">
        <ele>1030.1787569296</ele>
        <time>2016-11-12T11:46:21Z</time>
      </trkpt>
      <trkpt lat="43.63546" lon="2.97486">
        <ele>1025.6356064079</ele>
        <time>2016-11-12T11:46:21Z</time>
      </trkpt>
      <trkpt lat="43.63544" lon="2.97486">
        <ele>1025.6356064079</ele>
        <time>2016-11-12T11:46:40Z</time>
      </trkpt>
      <trkpt lat="43.63532" lon="2.97486">
        <ele>1021.318925376</ele>
        <time>2016-11-12T11:47:22Z</time>
      </trkpt>
      <trkpt lat="43.6353" lon="2.97485">
        <ele>1021.318925376</ele>
        <time>2016-11-12T11:47:22Z</time>
      </trkpt>
      <trkpt lat="43.63517" lon="2.97488">
        <ele>1017.2529822712</ele>
        <time>2016-11-12T11:48:07Z</time>
      </trkpt>
      <trkpt lat="43.63515" lon="2.97488">
        <ele>1017.2529822712</ele>
        <time>2016-11-12T11:48:10Z</time>
      </trkpt>
      <trkpt lat="43.63509" lon="2.97487">
        <ele>1017.2529822712</ele>
        <time>2016-11-12T11:48:29Z</time>
      </trkpt>
      <trkpt lat="43.63507" lon="2.97486">
        <ele>1013.4592841571</ele>
        <time>2016-11-12T11:48:49Z</time>
      </trkpt>
      <trkpt lat="43.63518" lon="2.97494">
        <ele>1009.7693619086</ele>
        <time>2016-11-12T11:49:44Z</time>
      </trkpt>
      <trkpt lat="43.6352" lon="2.97494">
        <ele>1009.7693619086</ele>
        <time>2016-11-12T11:49:44Z</time>
      </trkpt>
      <trkpt lat="43.6352" lon="2.97494">
        <ele>1009.7693619086</ele>
        <time>2016-11-12T11:49:45Z</time>
      </trkpt>
      <trkpt lat="43.63529" lon="2.975">
        <ele>1006.4444567156</ele>
        <time>2016-11-12T11:50:03Z</time>
      </trkpt>
      <trkpt lat="43.6353" lon="2.975">
        <ele>1006.4444567156</ele>
        <time>2016-11-12T11:50:03Z</time>
      </trkpt>
      <trkpt lat="43.63532" lon="2.97499">
        <ele>1006.4444567156</ele>
        <time>2016-11-12T11:50:05Z</time>
      </trkpt>
      <trkpt lat="43.63547" lon="2.97497">
        <ele>1003.3650151627</ele>
        <time>2016-11-12T11:50:50Z</time>
      </trkpt>
      <trkpt lat="43.63562" lon="2.97484">
        <ele>1000.8083745707</ele>
        <time>2016-11-12T11:51:30Z</time>
      </trkpt>
      <trkpt lat="43.63563" lon="2.97482">
        <ele>1000.8083745707</ele>
        <time>2016-11-12T11:51:30Z</time>
      </trkpt>
      <trkpt lat="43.63568" lon="2.97477">
        <ele>1000.8083745707</ele>
        <time>2016-11-12T11:51:45Z</time>
      </trkpt>
      <trkpt lat="43.63569" lon="2.97476">
        <ele>1000.8083745707</ele>
        <time>2016-11-12T11:51:45Z</time>
      </trkpt>
      <trkpt lat="43.63568" lon="2.97467">
        <ele>998.87120989196</ele>
        <time>2016-11-12T11:52:10Z</time>
      </trkpt>
      <trkpt lat="43.63582" lon="2.97456">
        <ele>997.4248966771</ele>
        <time>2016-11-12T11:52:52Z</time>
      </trkpt>
      <trkpt lat="43.63583" lon="2.97455">
        <ele>997.4248966771</ele>
        <time>2016-11-12T11:53:26Z</time>
      </trkpt>
      <trkpt lat="43.63591" lon="2.97451">
        <ele>996.7809350381</ele>
        <time>2016-11-12T11:53:26Z</time>
      </trkpt>
      <trkpt lat="43.63594" lon="2.9745">
        <ele>996.7809350381</ele>
        <time>2016-11-12T11:53:38Z</time>
      </trkpt>
      <trkpt lat="43.63594" lon="2.9745">
        <ele>996.7809350381</ele>
        <time>2016-11-12T11:53:38Z</time>
      </trkpt>
      <trkpt lat="43.63594" lon="2.97449">
        <ele>996.7809350381</ele>
        <time>2016-11-12T11:53:43Z</time>
      </trkpt>
      <trkpt lat="43.63592" lon="2.97454">
        <ele>996.7809350381</ele>
        <time>2016-11-12T11:53:51Z</time>
      </trkpt>
      <trkpt lat="43.63591" lon="2.97455">
        <ele>996.7809350381</ele>
        <time>2016-11-12T11:53:52Z</time>
      </trkpt>
      <trkpt lat="43.63577" lon="2.97459">
        <ele>996.56251628153</ele>
        <time>2016-11-12T11:54:12Z</time>
      </trkpt>
      <trkpt lat="43.63565" lon="2.9746">
        <ele>996.53436413941</ele>
        <time>2016-11-12T11:55:45Z</time>
      </trkpt>
      <trkpt lat="43.63567" lon="2.97455">
        <ele>996.53436413941</ele>
        <time>2016-11-12T12:04:18Z</time>
      </trkpt>
      <trkpt lat="43.63564" lon="2.9745">
        <ele>996.53436413941</ele>
        <time>2016-11-12T12:05:02Z</time>
      </trkpt>
      <trkpt lat="43.63539" lon="2.97442">
        <ele>997.1982897477</ele>
        <time>2016-11-12T12:05:30Z</time>
      </trkpt>
      <trkpt lat="43.63528" lon="2.97429">
        <ele>997.89304083779</ele>
        <time>2016-11-12T12:05:56Z</time>
      </trkpt>
      <trkpt lat="43.63528" lon="2.97428">
        <ele>997.89304083779</ele>
        <time>2016-11-12T12:05:56Z</time>
      </trkpt>
      <trkpt lat="43.63523" lon="2.97427">
        <ele>997.89304083779</ele>
        <time>2016-11-12T12:06:13Z</time>
      </trkpt>
      <trkpt lat="43.63521" lon="2.97425">
        <ele>997.89304083779</ele>
        <time>2016-11-12T12:06:13Z</time>
      </trkpt>
      <trkpt lat="43.63499" lon="2.97407">
        <ele>998.84153565135</ele>
        <time>2016-11-12T12:07:00Z</time>
      </trkpt>
      <trkpt lat="43.63494" lon="2.97401">
        <ele>998.84153565135</ele>
        <time>2016-11-12T12:07:02Z</time>
      </trkpt>
      <trkpt lat="43.63492" lon="2.9739">
        <ele>999.9612481041</ele>
        <time>2016-11-12T12:07:15Z</time>
      </trkpt>
      <trkpt lat="43.63485" lon="2.97379">
        <ele>1001.2615953948</ele>
        <time>2016-11-12T12:07:35Z</time>
      </trkpt>
      <trkpt lat="43.6348" lon="2.97351">
        <ele>1002.6930748058</ele>
        <time>2016-11-12T12:08:04Z</time>
      </trkpt>
      <trkpt lat="43.6348" lon="2.97348">
        <ele>1002.6930748058</ele>
        <time>2016-11-12T12:08:05Z</time>
      </trkpt>
      <trkpt lat="43.63472" lon="2.97312">
        <ele>1004.3967482737</ele>
        <time>2016-11-12T12:08:40Z</time>
      </trkpt>
      <trkpt lat="43.63473" lon="2.97308">
        <ele>1004.3967482737</ele>
        <time>2016-11-12T12:08:45Z</time>
      </trkpt>
      <trkpt lat="43.63482" lon="2.97295">
        <ele>1006.2287196235</ele>
        <time>2016-11-12T12:09:01Z</time>
      </trkpt>
      <trkpt lat="43.63483" lon="2.97294">
        <ele>1006.2287196235</ele>
        <time>2016-11-12T12:09:01Z</time>
      </trkpt>
      <trkpt lat="43.63487" lon="2.97279">
        <ele>1008.1273652058</ele>
        <time>2016-11-12T12:09:08Z</time>
      </trkpt>
      <trkpt lat="43.63489" lon="2.97274">
        <ele>1008.1273652058</ele>
        <time>2016-11-12T12:09:10Z</time>
      </trkpt>
      <trkpt lat="43.63491" lon="2.97272">
        <ele>1008.1273652058</ele>
        <time>2016-11-12T12:09:15Z</time>
      </trkpt>
      <trkpt lat="43.63494" lon="2.97271">
        <ele>1010.1939561886</ele>
        <time>2016-11-12T12:09:20Z</time>
      </trkpt>
      <trkpt lat="43.63494" lon="2.97266">
        <ele>1010.1939561886</ele>
        <time>2016-11-12T12:09:29Z</time>
      </trkpt>
      <trkpt lat="43.63496" lon="2.97261">
        <ele>1010.1939561886</ele>
        <time>2016-11-12T12:09:30Z</time>
      </trkpt>
      <trkpt lat="43.63531" lon="2.97216">
        <ele>1012.7813123069</ele>
        <time>2016-11-12T12:10:25Z</time>
      </trkpt>
      <trkpt lat="43.63546" lon="2.97205">
        <ele>1015.4223466807</ele>
        <time>2016-11-12T12:10:50Z</time>
      </trkpt>
      <trkpt lat="43.6356" lon="2.97198">
        <ele>1018.102165493</ele>
        <time>2016-11-12T12:10:50Z</time>
      </trkpt>
      <trkpt lat="43.63571" lon="2.97194">
        <ele>1020.6917041491</ele>
        <time>2016-11-12T12:11:06Z</time>
      </trkpt>
      <trkpt lat="43.6358" lon="2.97192">
        <ele>1020.6917041491</ele>
        <time>2016-11-12T12:11:06Z</time>
      </trkpt>
      <trkpt lat="43.63616" lon="2.97168">
        <ele>1023.2879546041</ele>
        <time>2016-11-12T12:11:58Z</time>
      </trkpt>
      <trkpt lat="43.63619" lon="2.97167">
        <ele>1023.2879546041</ele>
        <time>2016-11-12T12:12:05Z</time>
      </trkpt>
      <trkpt lat="43.63623" lon="2.97162">
        <ele>1025.6927178258</ele>
        <time>2016-11-12T12:12:05Z</time>
      </trkpt>
      <trkpt lat="43.63632" lon="2.97159">
        <ele>1025.6927178258</ele>
        <time>2016-11-12T12:12:35Z</time>
      </trkpt>
      <trkpt lat="43.63647" lon="2.97154">
        <ele>1028.1842404837</ele>
        <time>2016-11-12T12:12:35Z</time>
      </trkpt>
      <trkpt lat="43.63676" lon="2.97146">
        <ele>1030.8041276467</ele>
        <time>2016-11-12T12:13:00Z</time>
      </trkpt>
      <trkpt lat="43.63696" lon="2.97126">
        <ele>1032.8125885461</ele>
        <time>2016-11-12T12:13:19Z</time>
      </trkpt>
      <trkpt lat="43.63706" lon="2.97115">
        <ele>1034.52049078</ele>
        <time>2016-11-12T12:13:44Z</time>
      </trkpt>
      <trkpt lat="43.6371" lon="2.97112">
        <ele>1034.52049078</ele>
        <time>2016-11-12T12:13:44Z</time>
      </trkpt>
      <trkpt lat="43.63724" lon="2.97107">
        <ele>1035.8854906452</ele>
        <time>2016-11-12T12:14:00Z</time>
      </trkpt>
      <trkpt lat="43.63746" lon="2.97085">
        <ele>1037.1145464604</ele>
        <time>2016-11-12T12:14:24Z</time>
      </trkpt>
      <trkpt lat="43.63759" lon="2.97082">
        <ele>1038.2126902002</ele>
        <time>2016-11-12T12:14:33Z</time>
      </trkpt>
      <trkpt lat="43.63781" lon="2.97075">
        <ele>1039.026665766</ele>
        <time>2016-11-12T12:14:55Z</time>
      </trkpt>
      <trkpt lat="43.638" lon="2.97071">
        <ele>1038.5076010271</ele>
        <time>2016-11-12T12:15:32Z</time>
      </trkpt>
      <trkpt lat="43.63812" lon="2.97063">
        <ele>1037.8925329125</ele>
        <time>2016-11-12T12:15:47Z</time>
      </trkpt>
      <trkpt lat="43.63817" lon="2.97056">
        <ele>1037.8925329125</ele>
        <time>2016-11-12T12:15:50Z</time>
      </trkpt>
      <trkpt lat="43.63821" lon="2.97053">
        <ele>1036.7284650049</ele>
        <time>2016-11-12T12:15:55Z</time>
      </trkpt>
      <trkpt lat="43.63824" lon="2.9705">
        <ele>1036.7284650049</ele>
        <time>2016-11-12T12:16:00Z</time>
      </trkpt>
      <trkpt lat="43.63826" lon="2.97047">
        <ele>1036.7284650049</ele>
        <time>2016-11-12T12:16:05Z</time>
      </trkpt>
      <trkpt lat="43.63828" lon="2.97048">
        <ele>1036.7284650049</ele>
        <time>2016-11-12T12:16:10Z</time>
      </trkpt>
      <trkpt lat="43.63831" lon="2.97046">
        <ele>1035.0009134285</ele>
        <time>2016-11-12T12:16:15Z</time>
      </trkpt>
      <trkpt lat="43.63834" lon="2.97046">
        <ele>1035.0009134285</ele>
        <time>2016-11-12T12:16:20Z</time>
      </trkpt>
      <trkpt lat="43.63838" lon="2.97044">
        <ele>1035.0009134285</ele>
        <time>2016-11-12T12:16:25Z</time>
      </trkpt>
      <trkpt lat="43.6384" lon="2.97042">
        <ele>1032.871133586</ele>
        <time>2016-11-12T12:16:30Z</time>
      </trkpt>
      <trkpt lat="43.63841" lon="2.97042">
        <ele>1032.871133586</ele>
        <time>2016-11-12T12:16:35Z</time>
      </trkpt>
      <trkpt lat="43.63845" lon="2.97038">
        <ele>1032.871133586</ele>
        <time>2016-11-12T12:16:45Z</time>
      </trkpt>
      <trkpt lat="43.63848" lon="2.97037">
        <ele>1030.5618552013</ele>
        <time>2016-11-12T12:16:50Z</time>
      </trkpt>
      <trkpt lat="43.63851" lon="2.97033">
        <ele>1030.5618552013</ele>
        <time>2016-11-12T12:17:00Z</time>
      </trkpt>
      <trkpt lat="43.63874" lon="2.97028">
        <ele>1028.1071258935</ele>
        <time>2016-11-12T12:17:18Z</time>
      </trkpt>
      <trkpt lat="43.63875" lon="2.97028">
        <ele>1028.1071258935</ele>
        <time>2016-11-12T12:17:20Z</time>
      </trkpt>
      <trkpt lat="43.63911" lon="2.97017">
        <ele>1025.1210590757</ele>
        <time>2016-11-12T12:18:06Z</time>
      </trkpt>
      <trkpt lat="43.63914" lon="2.97015">
        <ele>1025.1210590757</ele>
        <time>2016-11-12T12:18:12Z</time>
      </trkpt>
      <trkpt lat="43.63921" lon="2.97013">
        <ele>1022.0402702004</ele>
        <time>2016-11-12T12:18:21Z</time>
      </trkpt>
      <trkpt lat="43.63923" lon="2.97013">
        <ele>1022.0402702004</ele>
        <time>2016-11-12T12:18:22Z</time>
      </trkpt>
      <trkpt lat="43.63982" lon="2.96962">
        <ele>1016.6611757083</ele>
        <time>2016-11-12T12:20:17Z</time>
      </trkpt>
      <trkpt lat="43.63982" lon="2.96961">
        <ele>1016.6611757083</ele>
        <time>2016-11-12T12:20:23Z</time>
      </trkpt>
      <trkpt lat="43.63972" lon="2.96978">
        <ele>1011.3150687941</ele>
        <time>2016-11-12T12:21:22Z</time>
      </trkpt>
      <trkpt lat="43.6397" lon="2.96978">
        <ele>1011.3150687941</ele>
        <time>2016-11-12T12:21:22Z</time>
      </trkpt>
      <trkpt lat="43.63953" lon="2.96988">
        <ele>1006.0289992143</ele>
        <time>2016-11-12T12:22:42Z</time>
      </trkpt>
      <trkpt lat="43.63951" lon="2.96991">
        <ele>1006.0289992143</ele>
        <time>2016-11-12T12:22:42Z</time>
      </trkpt>
      <trkpt lat="43.63921" lon="2.97011">
        <ele>1001.0439398545</ele>
        <time>2016-11-12T12:23:15Z</time>
      </trkpt>
      <trkpt lat="43.63887" lon="2.97069">
        <ele>996.33720340332</ele>
        <time>2016-11-12T12:24:07Z</time>
      </trkpt>
      <trkpt lat="43.6388" lon="2.97077">
        <ele>996.33720340332</ele>
        <time>2016-11-12T12:24:15Z</time>
      </trkpt>
      <trkpt lat="43.63865" lon="2.97094">
        <ele>991.39685236707</ele>
        <time>2016-11-12T12:24:57Z</time>
      </trkpt>
      <trkpt lat="43.63849" lon="2.97123">
        <ele>985.89313435595</ele>
        <time>2016-11-12T12:25:10Z</time>
      </trkpt>
      <trkpt lat="43.63809" lon="2.97165">
        <ele>980.1415629108</ele>
        <time>2016-11-12T12:26:04Z</time>
      </trkpt>
      <trkpt lat="43.63808" lon="2.97167">
        <ele>980.1415629108</ele>
        <time>2016-11-12T12:26:07Z</time>
      </trkpt>
      <trkpt lat="43.63797" lon="2.97178">
        <ele>974.79520547477</ele>
        <time>2016-11-12T12:26:25Z</time>
      </trkpt>
      <trkpt lat="43.63779" lon="2.97199">
        <ele>969.59308550726</ele>
        <time>2016-11-12T12:27:06Z</time>
      </trkpt>
      <trkpt lat="43.63755" lon="2.9723">
        <ele>964.82591684498</ele>
        <time>2016-11-12T12:27:52Z</time>
      </trkpt>
      <trkpt lat="43.63753" lon="2.97232">
        <ele>964.82591684498</ele>
        <time>2016-11-12T12:27:52Z</time>
      </trkpt>
      <trkpt lat="43.63742" lon="2.97247">
        <ele>960.55977785406</ele>
        <time>2016-11-12T12:28:07Z</time>
      </trkpt>
      <trkpt lat="43.63741" lon="2.97251">
        <ele>960.55977785406</ele>
        <time>2016-11-12T12:28:10Z</time>
      </trkpt>
      <trkpt lat="43.63737" lon="2.97258">
        <ele>956.76770548724</ele>
        <time>2016-11-12T12:28:15Z</time>
      </trkpt>
      <trkpt lat="43.63696" lon="2.97299">
        <ele>953.49512231123</ele>
        <time>2016-11-12T12:29:12Z</time>
      </trkpt>
      <trkpt lat="43.63691" lon="2.97308">
        <ele>953.49512231123</ele>
        <time>2016-11-12T12:29:14Z</time>
      </trkpt>
      <trkpt lat="43.63653" lon="2.97348">
        <ele>950.66704693287</ele>
        <time>2016-11-12T12:30:03Z</time>
      </trkpt>
      <trkpt lat="43.63653" lon="2.97352">
        <ele>950.66704693287</ele>
        <time>2016-11-12T12:30:03Z</time>
      </trkpt>
      <trkpt lat="43.63651" lon="2.97356">
        <ele>950.66704693287</ele>
        <time>2016-11-12T12:30:07Z</time>
      </trkpt>
      <trkpt lat="43.63672" lon="2.97436">
        <ele>948.42860991329</ele>
        <time>2016-11-12T12:31:06Z</time>
      </trkpt>
      <trkpt lat="43.63669" lon="2.97493">
        <ele>946.26381948695</ele>
        <time>2016-11-12T12:31:58Z</time>
      </trkpt>
      <trkpt lat="43.63667" lon="2.97507">
        <ele>944.3281768213</ele>
        <time>2016-11-12T12:31:58Z</time>
      </trkpt>
      <trkpt lat="43.63666" lon="2.97517">
        <ele>944.3281768213</ele>
        <time>2016-11-12T12:32:05Z</time>
      </trkpt>
      <trkpt lat="43.63667" lon="2.97522">
        <ele>942.33250441277</ele>
        <time>2016-11-12T12:32:11Z</time>
      </trkpt>
      <trkpt lat="43.63645" lon="2.97635">
        <ele>939.24498136787</ele>
        <time>2016-11-12T12:33:56Z</time>
      </trkpt>
      <trkpt lat="43.63594" lon="2.97636">
        <ele>935.87054969274</ele>
        <time>2016-11-12T12:36:07Z</time>
      </trkpt>
      <trkpt lat="43.63592" lon="2.97636">
        <ele>935.87054969274</ele>
        <time>2016-11-12T12:36:10Z</time>
      </trkpt>
      <trkpt lat="43.63538" lon="2.97665">
        <ele>932.8258824515</ele>
        <time>2016-11-12T12:37:08Z</time>
      </trkpt>
      <trkpt lat="43.63528" lon="2.97671">
        <ele>930.16239210439</ele>
        <time>2016-11-12T12:37:08Z</time>
      </trkpt>
      <trkpt lat="43.63513" lon="2.97669">
        <ele>927.94082961757</ele>
        <time>2016-11-12T12:37:41Z</time>
      </trkpt>
      <trkpt lat="43.63493" lon="2.97654">
        <ele>926.11514978724</ele>
        <time>2016-11-12T12:38:06Z</time>
      </trkpt>
      <trkpt lat="43.6347" lon="2.97639">
        <ele>924.64137719596</ele>
        <time>2016-11-12T12:38:23Z</time>
      </trkpt>
      <trkpt lat="43.63442" lon="2.97617">
        <ele>923.54964980938</ele>
        <time>2016-11-12T12:38:46Z</time>
      </trkpt>
      <trkpt lat="43.63434" lon="2.97616">
        <ele>923.54964980938</ele>
        <time>2016-11-12T12:38:54Z</time>
      </trkpt>
      <trkpt lat="43.63374" lon="2.97658">
        <ele>923.12605439305</ele>
        <time>2016-11-12T12:40:07Z</time>
      </trkpt>
      <trkpt lat="43.63367" lon="2.97668">
        <ele>922.9419104935</ele>
        <time>2016-11-12T12:40:07Z</time>
      </trkpt>
      <trkpt lat="43.6335" lon="2.97679">
        <ele>922.94510392053</ele>
        <time>2016-11-12T12:40:20Z</time>
      </trkpt>
      <trkpt lat="43.63326" lon="2.97685">
        <ele>923.02908470275</ele>
        <time>2016-11-12T12:40:45Z</time>
      </trkpt>
      <trkpt lat="43.63311" lon="2.97679">
        <ele>923.28217969032</ele>
        <time>2016-11-12T12:41:05Z</time>
      </trkpt>
      <trkpt lat="43.6329" lon="2.97675">
        <ele>923.74247694158</ele>
        <time>2016-11-12T12:41:23Z</time>
      </trkpt>
      <trkpt lat="43.63289" lon="2.97676">
        <ele>923.74247694158</ele>
        <time>2016-11-12T12:41:23Z</time>
      </trkpt>
      <trkpt lat="43.63244" lon="2.97714">
        <ele>924.14203397544</ele>
        <time>2016-11-12T12:42:00Z</time>
      </trkpt>
      <trkpt lat="43.63221" lon="2.97739">
        <ele>924.17512225555</ele>
        <time>2016-11-12T12:42:32Z</time>
      </trkpt>
      <trkpt lat="43.63213" lon="2.97743">
        <ele>924.17512225555</ele>
        <time>2016-11-12T12:42:38Z</time>
      </trkpt>
      <trkpt lat="43.63183" lon="2.97757">
        <ele>923.77569232879</ele>
        <time>2016-11-12T12:43:00Z</time>
      </trkpt>
      <trkpt lat="43.63159" lon="2.97772">
        <ele>923.37378134527</ele>
        <time>2016-11-12T12:43:28Z</time>
      </trkpt>
      <trkpt lat="43.63138" lon="2.97764">
        <ele>922.76263372193</ele>
        <time>2016-11-12T12:43:40Z</time>
      </trkpt>
      <trkpt lat="43.63135" lon="2.97764">
        <ele>922.76263372193</ele>
        <time>2016-11-12T12:43:45Z</time>
      </trkpt>
      <trkpt lat="43.63133" lon="2.97763">
        <ele>922.76263372193</ele>
        <time>2016-11-12T12:43:50Z</time>
      </trkpt>
      <trkpt lat="43.63133" lon="2.97762">
        <ele>922.76263372193</ele>
        <time>2016-11-12T12:43:55Z</time>
      </trkpt>
      <trkpt lat="43.63128" lon="2.97773">
        <ele>920.77137939112</ele>
        <time>2016-11-12T12:46:10Z</time>
      </trkpt>
      <trkpt lat="43.63127" lon="2.97775">
        <ele>920.77137939112</ele>
        <time>2016-11-12T12:46:20Z</time>
      </trkpt>
      <trkpt lat="43.63132" lon="2.97769">
        <ele>920.77137939112</ele>
        <time>2016-11-12T12:46:27Z</time>
      </trkpt>
      <trkpt lat="43.63131" lon="2.97761">
        <ele>919.27338254307</ele>
        <time>2016-11-12T12:46:35Z</time>
      </trkpt>
      <trkpt lat="43.63129" lon="2.97755">
        <ele>919.27338254307</ele>
        <time>2016-11-12T12:46:40Z</time>
      </trkpt>
      <trkpt lat="43.63122" lon="2.97745">
        <ele>918.05758211657</ele>
        <time>2016-11-12T12:46:50Z</time>
      </trkpt>
      <trkpt lat="43.63118" lon="2.97739">
        <ele>918.05758211657</ele>
        <time>2016-11-12T12:46:55Z</time>
      </trkpt>
      <trkpt lat="43.63098" lon="2.9769">
        <ele>917.01417336631</ele>
        <time>2016-11-12T12:47:30Z</time>
      </trkpt>
      <trkpt lat="43.63097" lon="2.9769">
        <ele>917.01417336631</ele>
        <time>2016-11-12T12:47:35Z</time>
      </trkpt>
      <trkpt lat="43.63097" lon="2.9769">
        <ele>917.01417336631</ele>
        <time>2016-11-12T12:47:40Z</time>
      </trkpt>
      <trkpt lat="43.63094" lon="2.97683">
        <ele>917.01417336631</ele>
        <time>2016-11-12T12:47:45Z</time>
      </trkpt>
      <trkpt lat="43.63092" lon="2.97678">
        <ele>916.14189003049</ele>
        <time>2016-11-12T12:47:50Z</time>
      </trkpt>
      <trkpt lat="43.63084" lon="2.97651">
        <ele>915.2806373599</ele>
        <time>2016-11-12T12:48:11Z</time>
      </trkpt>
      <trkpt lat="43.63074" lon="2.9773">
        <ele>914.05155584579</ele>
        <time>2016-11-12T12:49:18Z</time>
      </trkpt>
      <trkpt lat="43.63072" lon="2.9773">
        <ele>914.05155584579</ele>
        <time>2016-11-12T12:49:42Z</time>
      </trkpt>
      <trkpt lat="43.63072" lon="2.97717">
        <ele>912.83970160253</ele>
        <time>2016-11-12T12:50:10Z</time>
      </trkpt>
      <trkpt lat="43.63069" lon="2.97729">
        <ele>911.81453973412</ele>
        <time>2016-11-12T12:50:47Z</time>
      </trkpt>
      <trkpt lat="43.63025" lon="2.97757">
        <ele>910.4553285622</ele>
        <time>2016-11-12T12:51:50Z</time>
      </trkpt>
      <trkpt lat="43.63026" lon="2.97758">
        <ele>910.4553285622</ele>
        <time>2016-11-12T12:51:55Z</time>
      </trkpt>
      <trkpt lat="43.63031" lon="2.9777">
        <ele>909.36143891651</ele>
        <time>2016-11-12T12:52:30Z</time>
      </trkpt>
      <trkpt lat="43.63032" lon="2.97771">
        <ele>909.36143891651</ele>
        <time>2016-11-12T12:52:35Z</time>
      </trkpt>
      <trkpt lat="43.63024" lon="2.97761">
        <ele>908.58316746516</ele>
        <time>2016-11-12T12:53:00Z</time>
      </trkpt>
      <trkpt lat="43.63024" lon="2.97761">
        <ele>908.58316746516</ele>
        <time>2016-11-12T12:53:05Z</time>
      </trkpt>
      <trkpt lat="43.63018" lon="2.97763">
        <ele>908.58316746516</ele>
        <time>2016-11-12T12:53:20Z</time>
      </trkpt>
      <trkpt lat="43.62991" lon="2.97775">
        <ele>907.38811898348</ele>
        <time>2016-11-12T12:53:57Z</time>
      </trkpt>
      <trkpt lat="43.62979" lon="2.9778">
        <ele>906.28066886303</ele>
        <time>2016-11-12T12:54:10Z</time>
      </trkpt>
      <trkpt lat="43.62974" lon="2.97785">
        <ele>906.28066886303</ele>
        <time>2016-11-12T12:54:15Z</time>
      </trkpt>
      <trkpt lat="43.62964" lon="2.97791">
        <ele>905.25241742586</ele>
        <time>2016-11-12T12:54:32Z</time>
      </trkpt>
      <trkpt lat="43.62958" lon="2.97793">
        <ele>905.25241742586</ele>
        <time>2016-11-12T12:54:32Z</time>
      </trkpt>
      <trkpt lat="43.62939" lon="2.97797">
        <ele>904.10810347785</ele>
        <time>2016-11-12T12:55:00Z</time>
      </trkpt>
      <trkpt lat="43.62939" lon="2.97797">
        <ele>904.10810347785</ele>
        <time>2016-11-12T12:55:00Z</time>
      </trkpt>
      <trkpt lat="43.62938" lon="2.97797">
        <ele>904.10810347785</ele>
        <time>2016-11-12T12:55:05Z</time>
      </trkpt>
      <trkpt lat="43.62927" lon="2.97788">
        <ele>902.55193256659</ele>
        <time>2016-11-12T12:56:12Z</time>
      </trkpt>
      <trkpt lat="43.6289" lon="2.97794">
        <ele>901.01722310863</ele>
        <time>2016-11-12T12:56:57Z</time>
      </trkpt>
      <trkpt lat="43.6289" lon="2.97797">
        <ele>901.01722310863</ele>
        <time>2016-11-12T12:57:01Z</time>
      </trkpt>
      <trkpt lat="43.62889" lon="2.97799">
        <ele>901.01722310863</ele>
        <time>2016-11-12T12:57:18Z</time>
      </trkpt>
      <trkpt lat="43.62884" lon="2.97799">
        <ele>899.64608263156</ele>
        <time>2016-11-12T12:57:18Z</time>
      </trkpt>
      <trkpt lat="43.62878" lon="2.97814">
        <ele>897.83482981401</ele>
        <time>2016-11-12T12:57:59Z</time>
      </trkpt>
      <trkpt lat="43.62877" lon="2.97812">
        <ele>897.83482981401</ele>
        <time>2016-11-12T12:58:07Z</time>
      </trkpt>
      <trkpt lat="43.62872" lon="2.97803">
        <ele>895.89010163199</ele>
        <time>2016-11-12T12:58:15Z</time>
      </trkpt>
      <trkpt lat="43.6286" lon="2.97808">
        <ele>893.92351522856</ele>
        <time>2016-11-12T12:58:40Z</time>
      </trkpt>
      <trkpt lat="43.6286" lon="2.97809">
        <ele>893.92351522856</ele>
        <time>2016-11-12T12:58:40Z</time>
      </trkpt>
      <trkpt lat="43.62857" lon="2.97819">
        <ele>893.92351522856</ele>
        <time>2016-11-12T12:58:57Z</time>
      </trkpt>
      <trkpt lat="43.6283" lon="2.97804">
        <ele>891.73597363505</ele>
        <time>2016-11-12T12:59:47Z</time>
      </trkpt>
      <trkpt lat="43.62822" lon="2.97804">
        <ele>891.73597363505</ele>
        <time>2016-11-12T13:00:57Z</time>
      </trkpt>
      <trkpt lat="43.62801" lon="2.9781">
        <ele>889.92187558572</ele>
        <time>2016-11-12T13:01:18Z</time>
      </trkpt>
      <trkpt lat="43.62799" lon="2.9781">
        <ele>889.92187558572</ele>
        <time>2016-11-12T13:01:21Z</time>
      </trkpt>
      <trkpt lat="43.62781" lon="2.97814">
        <ele>888.05099488862</ele>
        <time>2016-11-12T13:01:41Z</time>
      </trkpt>
      <trkpt lat="43.62778" lon="2.97815">
        <ele>888.05099488862</ele>
        <time>2016-11-12T13:01:45Z</time>
      </trkpt>
      <trkpt lat="43.6277" lon="2.97816">
        <ele>886.21488307757</ele>
        <time>2016-11-12T13:02:10Z</time>
      </trkpt>
      <trkpt lat="43.62754" lon="2.97809">
        <ele>884.31095475443</ele>
        <time>2016-11-12T13:02:32Z</time>
      </trkpt>
      <trkpt lat="43.62753" lon="2.97809">
        <ele>884.31095475443</ele>
        <time>2016-11-12T13:02:36Z</time>
      </trkpt>
      <trkpt lat="43.62745" lon="2.97816">
        <ele>882.47495392595</ele>
        <time>2016-11-12T13:03:00Z</time>
      </trkpt>
      <trkpt lat="43.62742" lon="2.97816">
        <ele>882.47495392595</ele>
        <time>2016-11-12T13:03:22Z</time>
      </trkpt>
      <trkpt lat="43.62712" lon="2.97826">
        <ele>880.35691569301</ele>
        <time>2016-11-12T13:04:13Z</time>
      </trkpt>
      <trkpt lat="43.62709" lon="2.97831">
        <ele>880.35691569301</ele>
        <time>2016-11-12T13:04:13Z</time>
      </trkpt>
      <trkpt lat="43.62707" lon="2.97833">
        <ele>880.35691569301</ele>
        <time>2016-11-12T13:04:16Z</time>
      </trkpt>
      <trkpt lat="43.6269" lon="2.97847">
        <ele>878.10895612808</ele>
        <time>2016-11-12T13:04:55Z</time>
      </trkpt>
      <trkpt lat="43.62689" lon="2.97855">
        <ele>878.10895612808</ele>
        <time>2016-11-12T13:06:27Z</time>
      </trkpt>
      <trkpt lat="43.62689" lon="2.9786">
        <ele>875.52652293435</ele>
        <time>2016-11-12T13:06:30Z</time>
      </trkpt>
      <trkpt lat="43.62685" lon="2.97891">
        <ele>873.18481921344</ele>
        <time>2016-11-12T13:07:00Z</time>
      </trkpt>
      <trkpt lat="43.62666" lon="2.97896">
        <ele>871.22701361743</ele>
        <time>2016-11-12T13:07:27Z</time>
      </trkpt>
      <trkpt lat="43.6265" lon="2.97892">
        <ele>869.49644807911</ele>
        <time>2016-11-12T13:08:06Z</time>
      </trkpt>
      <trkpt lat="43.6265" lon="2.97892">
        <ele>869.49644807911</ele>
        <time>2016-11-12T13:08:07Z</time>
      </trkpt>
      <trkpt lat="43.62639" lon="2.97892">
        <ele>867.94819895978</ele>
        <time>2016-11-12T13:08:32Z</time>
      </trkpt>
      <trkpt lat="43.6262" lon="2.97897">
        <ele>866.59776067185</ele>
        <time>2016-11-12T13:08:51Z</time>
      </trkpt>
      <trkpt lat="43.62609" lon="2.97897">
        <ele>865.43009819449</ele>
        <time>2016-11-12T13:09:27Z</time>
      </trkpt>
      <trkpt lat="43.62592" lon="2.97901">
        <ele>864.38752327676</ele>
        <time>2016-11-12T13:10:10Z</time>
      </trkpt>
      <trkpt lat="43.6259" lon="2.97899">
        <ele>864.38752327676</ele>
        <time>2016-11-12T13:10:17Z</time>
      </trkpt>
      <trkpt lat="43.62583" lon="2.97908">
        <ele>863.71886050189</ele>
        <time>2016-11-12T13:10:55Z</time>
      </trkpt>
      <trkpt lat="43.62577" lon="2.97897">
        <ele>863.20686046337</ele>
        <time>2016-11-12T13:11:57Z</time>
      </trkpt>
      <trkpt lat="43.62564" lon="2.97887">
        <ele>862.92360954858</ele>
        <time>2016-11-12T13:12:26Z</time>
      </trkpt>
      <trkpt lat="43.62548" lon="2.97873">
        <ele>862.48852515877</ele>
        <time>2016-11-12T13:13:08Z</time>
      </trkpt>
      <trkpt lat="43.62522" lon="2.97873">
        <ele>862.15469601903</ele>
        <time>2016-11-12T13:13:55Z</time>
      </trkpt>
      <trkpt lat="43.625" lon="2.97867">
        <ele>861.78167520776</ele>
        <time>2016-11-12T13:14:15Z</time>
      </trkpt>
      <trkpt lat="43.62473" lon="2.97864">
        <ele>861.32594617159</ele>
        <time>2016-11-12T13:14:47Z</time>
      </trkpt>
      <trkpt lat="43.62464" lon="2.97863">
        <ele>861.32594617159</ele>
        <time>2016-11-12T13:14:47Z</time>
      </trkpt>
      <trkpt lat="43.62452" lon="2.97868">
        <ele>860.79069738541</ele>
        <time>2016-11-12T13:15:05Z</time>
      </trkpt>
      <trkpt lat="43.62448" lon="2.97867">
        <ele>860.79069738541</ele>
        <time>2016-11-12T13:15:05Z</time>
      </trkpt>
      <trkpt lat="43.62447" lon="2.97867">
        <ele>860.79069738541</ele>
        <time>2016-11-12T13:15:06Z</time>
      </trkpt>
      <trkpt lat="43.62423" lon="2.97896">
        <ele>860.15033226498</ele>
        <time>2016-11-12T13:15:52Z</time>
      </trkpt>
      <trkpt lat="43.6242" lon="2.97904">
        <ele>860.15033226498</ele>
        <time>2016-11-12T13:15:52Z</time>
      </trkpt>
      <trkpt lat="43.62415" lon="2.97915">
        <ele>859.61206007009</ele>
        <time>2016-11-12T13:16:00Z</time>
      </trkpt>
      <trkpt lat="43.62388" lon="2.97942">
        <ele>858.77678228898</ele>
        <time>2016-11-12T13:17:10Z</time>
      </trkpt>
      <trkpt lat="43.62383" lon="2.97944">
        <ele>858.77678228898</ele>
        <time>2016-11-12T13:17:12Z</time>
      </trkpt>
      <trkpt lat="43.62367" lon="2.97951">
        <ele>858.05380970313</ele>
        <time>2016-11-12T13:17:36Z</time>
      </trkpt>
      <trkpt lat="43.62359" lon="2.97954">
        <ele>858.05380970313</ele>
        <time>2016-11-12T13:17:36Z</time>
      </trkpt>
      <trkpt lat="43.62339" lon="2.97981">
        <ele>857.49067479763</ele>
        <time>2016-11-12T13:18:00Z</time>
      </trkpt>
      <trkpt lat="43.62336" lon="2.97983">
        <ele>857.49067479763</ele>
        <time>2016-11-12T13:18:05Z</time>
      </trkpt>
      <trkpt lat="43.62325" lon="2.9799">
        <ele>857.03015405103</ele>
        <time>2016-11-12T13:18:25Z</time>
      </trkpt>
      <trkpt lat="43.62321" lon="2.97995">
        <ele>857.03015405103</ele>
        <time>2016-11-12T13:18:25Z</time>
      </trkpt>
      <trkpt lat="43.62306" lon="2.98002">
        <ele>856.66223681794</ele>
        <time>2016-11-12T13:18:41Z</time>
      </trkpt>
      <trkpt lat="43.6229" lon="2.98001">
        <ele>856.34863203616</ele>
        <time>2016-11-12T13:19:06Z</time>
      </trkpt>
      <trkpt lat="43.6229" lon="2.98">
        <ele>856.34863203616</ele>
        <time>2016-11-12T13:19:06Z</time>
      </trkpt>
      <trkpt lat="43.62267" lon="2.97989">
        <ele>855.77996641709</ele>
        <time>2016-11-12T13:19:53Z</time>
      </trkpt>
      <trkpt lat="43.62245" lon="2.97978">
        <ele>855.11712354327</ele>
        <time>2016-11-12T13:20:13Z</time>
      </trkpt>
      <trkpt lat="43.62224" lon="2.97971">
        <ele>854.53832658268</ele>
        <time>2016-11-12T13:20:27Z</time>
      </trkpt>
      <trkpt lat="43.62211" lon="2.97968">
        <ele>853.86267575456</ele>
        <time>2016-11-12T13:21:07Z</time>
      </trkpt>
      <trkpt lat="43.62217" lon="2.97974">
        <ele>853.86267575456</ele>
        <time>2016-11-12T13:21:07Z</time>
      </trkpt>
      <trkpt lat="43.62215" lon="2.97984">
        <ele>853.25435886459</ele>
        <time>2016-11-12T13:21:23Z</time>
      </trkpt>
      <trkpt lat="43.62187" lon="2.97992">
        <ele>852.69245113492</ele>
        <time>2016-11-12T13:21:47Z</time>
      </trkpt>
      <trkpt lat="43.62174" lon="2.98009">
        <ele>852.20073842725</ele>
        <time>2016-11-12T13:22:10Z</time>
      </trkpt>
      <trkpt lat="43.62173" lon="2.98009">
        <ele>852.20073842725</ele>
        <time>2016-11-12T13:22:17Z</time>
      </trkpt>
      <trkpt lat="43.6217" lon="2.98015">
        <ele>852.20073842725</ele>
        <time>2016-11-12T13:23:00Z</time>
      </trkpt>
      <trkpt lat="43.62151" lon="2.98019">
        <ele>851.64260987881</ele>
        <time>2016-11-12T13:23:19Z</time>
      </trkpt>
      <trkpt lat="43.62114" lon="2.98039">
        <ele>851.20879033652</ele>
        <time>2016-11-12T13:23:57Z</time>
      </trkpt>
      <trkpt lat="43.62096" lon="2.98042">
        <ele>850.83072572361</ele>
        <time>2016-11-12T13:24:22Z</time>
      </trkpt>
      <trkpt lat="43.62089" lon="2.98039">
        <ele>850.83072572361</ele>
        <time>2016-11-12T13:24:22Z</time>
      </trkpt>
      <trkpt lat="43.62087" lon="2.98039">
        <ele>850.50245530759</ele>
        <time>2016-11-12T13:24:31Z</time>
      </trkpt>
      <trkpt lat="43.62083" lon="2.98046">
        <ele>850.50245530759</ele>
        <time>2016-11-12T13:24:50Z</time>
      </trkpt>
      <trkpt lat="43.62059" lon="2.98042">
        <ele>850.14633040701</ele>
        <time>2016-11-12T13:25:15Z</time>
      </trkpt>
      <trkpt lat="43.62024" lon="2.98026">
        <ele>849.58967602368</ele>
        <time>2016-11-12T13:26:06Z</time>
      </trkpt>
      <trkpt lat="43.62018" lon="2.98025">
        <ele>849.58967602368</ele>
        <time>2016-11-12T13:26:06Z</time>
      </trkpt>
      <trkpt lat="43.62011" lon="2.98028">
        <ele>849.09105565601</ele>
        <time>2016-11-12T13:26:15Z</time>
      </trkpt>
      <trkpt lat="43.62007" lon="2.98028">
        <ele>849.09105565601</ele>
        <time>2016-11-12T13:26:20Z</time>
      </trkpt>
      <trkpt lat="43.62003" lon="2.98038">
        <ele>848.51525500448</ele>
        <time>2016-11-12T13:26:44Z</time>
      </trkpt>
      <trkpt lat="43.62001" lon="2.98039">
        <ele>848.51525500448</ele>
        <time>2016-11-12T13:26:48Z</time>
      </trkpt>
      <trkpt lat="43.61991" lon="2.98035">
        <ele>848.01108679115</ele>
        <time>2016-11-12T13:27:00Z</time>
      </trkpt>
      <trkpt lat="43.61979" lon="2.98033">
        <ele>847.57218482552</ele>
        <time>2016-11-12T13:27:17Z</time>
      </trkpt>
      <trkpt lat="43.61958" lon="2.98034">
        <ele>847.1925309431</ele>
        <time>2016-11-12T13:27:39Z</time>
      </trkpt>
      <trkpt lat="43.61951" lon="2.98036">
        <ele>847.1925309431</ele>
        <time>2016-11-12T13:27:47Z</time>
      </trkpt>
      <trkpt lat="43.61941" lon="2.98037">
        <ele>846.7799782958</ele>
        <time>2016-11-12T13:28:00Z</time>
      </trkpt>
      <trkpt lat="43.61913" lon="2.98028">
        <ele>846.13401306612</ele>
        <time>2016-11-12T13:29:00Z</time>
      </trkpt>
      <trkpt lat="43.61903" lon="2.98029">
        <ele>845.50189824203</ele>
        <time>2016-11-12T13:29:18Z</time>
      </trkpt>
      <trkpt lat="43.61901" lon="2.98029">
        <ele>845.50189824203</ele>
        <time>2016-11-12T13:29:18Z</time>
      </trkpt>
      <trkpt lat="43.61901" lon="2.9803">
        <ele>845.50189824203</ele>
        <time>2016-11-12T13:29:25Z</time>
      </trkpt>
      <trkpt lat="43.61901" lon="2.98033">
        <ele>845.50189824203</ele>
        <time>2016-11-12T13:29:55Z</time>
      </trkpt>
      <trkpt lat="43.61899" lon="2.98034">
        <ele>845.50189824203</ele>
        <time>2016-11-12T13:30:00Z</time>
      </trkpt>
      <trkpt lat="43.61894" lon="2.98043">
        <ele>844.6804169972</ele>
        <time>2016-11-12T13:30:09Z</time>
      </trkpt>
      <trkpt lat="43.61892" lon="2.98044">
        <ele>844.6804169972</ele>
        <time>2016-11-12T13:30:25Z</time>
      </trkpt>
      <trkpt lat="43.61891" lon="2.98044">
        <ele>844.6804169972</ele>
        <time>2016-11-12T13:30:46Z</time>
      </trkpt>
      <trkpt lat="43.61883" lon="2.98044">
        <ele>843.29451949279</ele>
        <time>2016-11-12T13:32:33Z</time>
      </trkpt>
      <trkpt lat="43.61878" lon="2.98046">
        <ele>843.29451949279</ele>
        <time>2016-11-12T13:32:33Z</time>
      </trkpt>
      <trkpt lat="43.61878" lon="2.98046">
        <ele>843.29451949279</ele>
        <time>2016-11-12T13:33:24Z</time>
      </trkpt>
      <trkpt lat="43.61875" lon="2.98053">
        <ele>841.92064824122</ele>
        <time>2016-11-12T13:33:28Z</time>
      </trkpt>
      <trkpt lat="43.61862" lon="2.98062">
        <ele>840.71821802403</ele>
        <time>2016-11-12T13:33:50Z</time>
      </trkpt>
      <trkpt lat="43.61852" lon="2.98056">
        <ele>839.63272971877</ele>
        <time>2016-11-12T13:34:10Z</time>
      </trkpt>
      <trkpt lat="43.61848" lon="2.98062">
        <ele>839.63272971877</ele>
        <time>2016-11-12T13:34:27Z</time>
      </trkpt>
      <trkpt lat="43.61847" lon="2.98065">
        <ele>839.63272971877</ele>
        <time>2016-11-12T13:34:30Z</time>
      </trkpt>
      <trkpt lat="43.61844" lon="2.98069">
        <ele>838.71426413402</ele>
        <time>2016-11-12T13:34:35Z</time>
      </trkpt>
      <trkpt lat="43.61833" lon="2.98081">
        <ele>837.95113187109</ele>
        <time>2016-11-12T13:35:00Z</time>
      </trkpt>
      <trkpt lat="43.61827" lon="2.98105">
        <ele>837.4906073441</ele>
        <time>2016-11-12T13:35:20Z</time>
      </trkpt>
      <trkpt lat="43.61824" lon="2.98108">
        <ele>837.4906073441</ele>
        <time>2016-11-12T13:35:40Z</time>
      </trkpt>
      <trkpt lat="43.61826" lon="2.98115">
        <ele>836.77658019479</ele>
        <time>2016-11-12T13:36:02Z</time>
      </trkpt>
      <trkpt lat="43.61825" lon="2.98116">
        <ele>836.77658019479</ele>
        <time>2016-11-12T13:36:08Z</time>
      </trkpt>
      <trkpt lat="43.61803" lon="2.98128">
        <ele>836.30329652944</ele>
        <time>2016-11-12T13:36:40Z</time>
      </trkpt>
      <trkpt lat="43.61803" lon="2.98129">
        <ele>836.30329652944</ele>
        <time>2016-11-12T13:36:45Z</time>
      </trkpt>
      <trkpt lat="43.61798" lon="2.98132">
        <ele>836.30329652944</ele>
        <time>2016-11-12T13:37:00Z</time>
      </trkpt>
      <trkpt lat="43.61798" lon="2.98132">
        <ele>836.30329652944</ele>
        <time>2016-11-12T13:37:05Z</time>
      </trkpt>
      <trkpt lat="43.61796" lon="2.98135">
        <ele>836.30329652944</ele>
        <time>2016-11-12T13:37:15Z</time>
      </trkpt>
      <trkpt lat="43.61794" lon="2.98138">
        <ele>836.0524690332</ele>
        <time>2016-11-12T13:37:20Z</time>
      </trkpt>
      <trkpt lat="43.61792" lon="2.98144">
        <ele>836.0524690332</ele>
        <time>2016-11-12T13:37:25Z</time>
      </trkpt>
      <trkpt lat="43.6179" lon="2.98152">
        <ele>835.83361302037</ele>
        <time>2016-11-12T13:37:30Z</time>
      </trkpt>
      <trkpt lat="43.61788" lon="2.98157">
        <ele>835.83361302037</ele>
        <time>2016-11-12T13:37:35Z</time>
      </trkpt>
      <trkpt lat="43.61786" lon="2.98162">
        <ele>835.83361302037</ele>
        <time>2016-11-12T13:37:40Z</time>
      </trkpt>
      <trkpt lat="43.61784" lon="2.98166">
        <ele>835.57104287098</ele>
        <time>2016-11-12T13:37:45Z</time>
      </trkpt>
      <trkpt lat="43.61783" lon="2.98171">
        <ele>835.57104287098</ele>
        <time>2016-11-12T13:37:50Z</time>
      </trkpt>
      <trkpt lat="43.61782" lon="2.98177">
        <ele>835.57104287098</ele>
        <time>2016-11-12T13:37:55Z</time>
      </trkpt>
      <trkpt lat="43.6178" lon="2.98182">
        <ele>835.39653120677</ele>
        <time>2016-11-12T13:38:00Z</time>
      </trkpt>
      <trkpt lat="43.61778" lon="2.98184">
        <ele>835.39653120677</ele>
        <time>2016-11-12T13:38:05Z</time>
      </trkpt>
      <trkpt lat="43.61778" lon="2.98188">
        <ele>835.39653120677</ele>
        <time>2016-11-12T13:38:10Z</time>
      </trkpt>
      <trkpt lat="43.61777" lon="2.98191">
        <ele>835.39653120677</ele>
        <time>2016-11-12T13:38:15Z</time>
      </trkpt>
      <trkpt lat="43.61777" lon="2.98196">
        <ele>835.31665735105</ele>
        <time>2016-11-12T13:38:20Z</time>
      </trkpt>
      <trkpt lat="43.61776" lon="2.982">
        <ele>835.31665735105</ele>
        <time>2016-11-12T13:38:25Z</time>
      </trkpt>
      <trkpt lat="43.61775" lon="2.98204">
        <ele>835.31665735105</ele>
        <time>2016-11-12T13:38:30Z</time>
      </trkpt>
      <trkpt lat="43.61773" lon="2.98209">
        <ele>835.29404363756</ele>
        <time>2016-11-12T13:38:35Z</time>
      </trkpt>
      <trkpt lat="43.61769" lon="2.98214">
        <ele>835.29404363756</ele>
        <time>2016-11-12T13:38:40Z</time>
      </trkpt>
      <trkpt lat="43.61767" lon="2.98216">
        <ele>835.29404363756</ele>
        <time>2016-11-12T13:38:45Z</time>
      </trkpt>
      <trkpt lat="43.61713" lon="2.98196">
        <ele>835.43803679982</ele>
        <time>2016-11-12T13:40:00Z</time>
      </trkpt>
      <trkpt lat="43.61693" lon="2.98186">
        <ele>835.56129269887</ele>
        <time>2016-11-12T13:40:20Z</time>
      </trkpt>
      <trkpt lat="43.61659" lon="2.98185">
        <ele>835.37503295657</ele>
        <time>2016-11-12T13:42:00Z</time>
      </trkpt>
      <trkpt lat="43.61644" lon="2.98177">
        <ele>835.24668709492</ele>
        <time>2016-11-12T13:42:15Z</time>
      </trkpt>
      <trkpt lat="43.61638" lon="2.98177">
        <ele>835.24668709492</ele>
        <time>2016-11-12T13:42:20Z</time>
      </trkpt>
      <trkpt lat="43.61607" lon="2.98195">
        <ele>835.18511441781</ele>
        <time>2016-11-12T13:43:00Z</time>
      </trkpt>
      <trkpt lat="43.61592" lon="2.98211">
        <ele>834.9101538724</ele>
        <time>2016-11-12T13:43:39Z</time>
      </trkpt>
      <trkpt lat="43.61577" lon="2.98216">
        <ele>834.63843079203</ele>
        <time>2016-11-12T13:43:39Z</time>
      </trkpt>
      <trkpt lat="43.6156" lon="2.98228">
        <ele>834.05188795375</ele>
        <time>2016-11-12T13:44:01Z</time>
      </trkpt>
      <trkpt lat="43.61545" lon="2.9822">
        <ele>833.30349843517</ele>
        <time>2016-11-12T13:44:25Z</time>
      </trkpt>
      <trkpt lat="43.6154" lon="2.98196">
        <ele>832.30490914711</ele>
        <time>2016-11-12T13:44:45Z</time>
      </trkpt>
      <trkpt lat="43.61539" lon="2.98191">
        <ele>832.30490914711</ele>
        <time>2016-11-12T13:45:00Z</time>
      </trkpt>
      <trkpt lat="43.61514" lon="2.98124">
        <ele>831.43614580188</ele>
        <time>2016-11-12T13:46:00Z</time>
      </trkpt>
      <trkpt lat="43.61507" lon="2.98102">
        <ele>830.61664581858</ele>
        <time>2016-11-12T13:46:15Z</time>
      </trkpt>
      <trkpt lat="43.61503" lon="2.98091">
        <ele>829.87252528422</ele>
        <time>2016-11-12T13:46:23Z</time>
      </trkpt>
      <trkpt lat="43.61491" lon="2.98059">
        <ele>829.21337588233</ele>
        <time>2016-11-12T13:47:00Z</time>
      </trkpt>
      <trkpt lat="43.61476" lon="2.98039">
        <ele>828.71991534666</ele>
        <time>2016-11-12T13:47:44Z</time>
      </trkpt>
      <trkpt lat="43.61467" lon="2.98035">
        <ele>828.46647858727</ele>
        <time>2016-11-12T13:48:08Z</time>
      </trkpt>
      <trkpt lat="43.61452" lon="2.98031">
        <ele>828.47804422324</ele>
        <time>2016-11-12T13:48:30Z</time>
      </trkpt>
      <trkpt lat="43.61448" lon="2.98021">
        <ele>828.47804422324</ele>
        <time>2016-11-12T13:48:32Z</time>
      </trkpt>
      <trkpt lat="43.6143" lon="2.97985">
        <ele>828.33027948396</ele>
        <time>2016-11-12T13:49:00Z</time>
      </trkpt>
      <trkpt lat="43.61428" lon="2.97981">
        <ele>828.33027948396</ele>
        <time>2016-11-12T13:49:05Z</time>
      </trkpt>
      <trkpt lat="43.61428" lon="2.97981">
        <ele>828.33027948396</ele>
        <time>2016-11-12T13:49:10Z</time>
      </trkpt>
      <trkpt lat="43.61407" lon="2.97948">
        <ele>828.32221670992</ele>
        <time>2016-11-12T13:50:00Z</time>
      </trkpt>
      <trkpt lat="43.61408" lon="2.97919">
        <ele>828.48555651469</ele>
        <time>2016-11-12T13:51:00Z</time>
      </trkpt>
      <trkpt lat="43.61414" lon="2.97866">
        <ele>828.79156455914</ele>
        <time>2016-11-12T13:51:36Z</time>
      </trkpt>
      <trkpt lat="43.61414" lon="2.97873">
        <ele>828.79156455914</ele>
        <time>2016-11-12T13:52:07Z</time>
      </trkpt>
      <trkpt lat="43.61419" lon="2.9788">
        <ele>829.19882866555</ele>
        <time>2016-11-12T13:52:07Z</time>
      </trkpt>
      <trkpt lat="43.61431" lon="2.97911">
        <ele>829.97135575315</ele>
        <time>2016-11-12T13:53:00Z</time>
      </trkpt>
      <trkpt lat="43.61432" lon="2.97915">
        <ele>829.97135575315</ele>
        <time>2016-11-12T13:53:02Z</time>
      </trkpt>
      <trkpt lat="43.6144" lon="2.97898">
        <ele>831.00690117015</ele>
        <time>2016-11-12T13:54:09Z</time>
      </trkpt>
      <trkpt lat="43.61436" lon="2.97897">
        <ele>831.00690117015</ele>
        <time>2016-11-12T13:54:10Z</time>
      </trkpt>
      <trkpt lat="43.61434" lon="2.97892">
        <ele>831.00690117015</ele>
        <time>2016-11-12T13:54:43Z</time>
      </trkpt>
      <trkpt lat="43.61417" lon="2.97917">
        <ele>831.97945600722</ele>
        <time>2016-11-12T13:56:05Z</time>
      </trkpt>
      <trkpt lat="43.61409" lon="2.97936">
        <ele>832.80335119694</ele>
        <time>2016-11-12T13:56:57Z</time>
      </trkpt>
      <trkpt lat="43.61406" lon="2.9794">
        <ele>832.80335119694</ele>
        <time>2016-11-12T13:57:01Z</time>
      </trkpt>
      <trkpt lat="43.61381" lon="2.97991">
        <ele>833.58702764187</ele>
        <time>2016-11-12T13:58:05Z</time>
      </trkpt>
      <trkpt lat="43.61381" lon="2.98003">
        <ele>833.58702764187</ele>
        <time>2016-11-12T14:00:09Z</time>
      </trkpt>
      <trkpt lat="43.6137" lon="2.98031">
        <ele>834.70494649179</ele>
        <time>2016-11-12T14:01:02Z</time>
      </trkpt>
      <trkpt lat="43.6137" lon="2.98029">
        <ele>834.70494649179</ele>
        <time>2016-11-12T14:01:02Z</time>
      </trkpt>
      <trkpt lat="43.61343" lon="2.97956">
        <ele>835.91233638812</ele>
        <time>2016-11-12T14:02:00Z</time>
      </trkpt>
      <trkpt lat="43.61339" lon="2.97932">
        <ele>837.24163090779</ele>
        <time>2016-11-12T14:02:20Z</time>
      </trkpt>
      <trkpt lat="43.613" lon="2.97854">
        <ele>838.95319938719</ele>
        <time>2016-11-12T14:03:25Z</time>
      </trkpt>
      <trkpt lat="43.61289" lon="2.97845">
        <ele>840.55233541163</ele>
        <time>2016-11-12T14:03:25Z</time>
      </trkpt>
      <trkpt lat="43.61282" lon="2.97822">
        <ele>842.17194268268</ele>
        <time>2016-11-12T14:04:16Z</time>
      </trkpt>
      <trkpt lat="43.61271" lon="2.9782">
        <ele>843.64698768712</ele>
        <time>2016-11-12T14:04:44Z</time>
      </trkpt>
      <trkpt lat="43.6127" lon="2.97818">
        <ele>843.64698768712</ele>
        <time>2016-11-12T14:04:49Z</time>
      </trkpt>
      <trkpt lat="43.61258" lon="2.97793">
        <ele>844.95477779123</ele>
        <time>2016-11-12T14:05:06Z</time>
      </trkpt>
      <trkpt lat="43.61248" lon="2.97775">
        <ele>846.19016236681</ele>
        <time>2016-11-12T14:05:31Z</time>
      </trkpt>
      <trkpt lat="43.61243" lon="2.97762">
        <ele>847.41252438941</ele>
        <time>2016-11-12T14:05:43Z</time>
      </trkpt>
      <trkpt lat="43.61236" lon="2.97749">
        <ele>848.54734331499</ele>
        <time>2016-11-12T14:05:43Z</time>
      </trkpt>
      <trkpt lat="43.61221" lon="2.97716">
        <ele>849.68446384855</ele>
        <time>2016-11-12T14:06:10Z</time>
      </trkpt>
      <trkpt lat="43.61207" lon="2.97676">
        <ele>851.02253689445</ele>
        <time>2016-11-12T14:06:39Z</time>
      </trkpt>
      <trkpt lat="43.61206" lon="2.97673">
        <ele>851.02253689445</ele>
        <time>2016-11-12T14:06:41Z</time>
      </trkpt>
      <trkpt lat="43.612" lon="2.97643">
        <ele>852.37049167802</ele>
        <time>2016-11-12T14:07:07Z</time>
      </trkpt>
      <trkpt lat="43.61193" lon="2.97636">
        <ele>852.37049167802</ele>
        <time>2016-11-12T14:07:07Z</time>
      </trkpt>
      <trkpt lat="43.61164" lon="2.97681">
        <ele>853.78196761426</ele>
        <time>2016-11-12T14:08:00Z</time>
      </trkpt>
      <trkpt lat="43.6116" lon="2.97664">
        <ele>855.89746705717</ele>
        <time>2016-11-12T14:08:24Z</time>
      </trkpt>
      <trkpt lat="43.61138" lon="2.97616">
        <ele>858.53039515455</ele>
        <time>2016-11-12T14:09:00Z</time>
      </trkpt>
      <trkpt lat="43.61129" lon="2.97604">
        <ele>861.1750909914</ele>
        <time>2016-11-12T14:09:18Z</time>
      </trkpt>
      <trkpt lat="43.61118" lon="2.97584">
        <ele>864.27104812228</ele>
        <time>2016-11-12T14:09:45Z</time>
      </trkpt>
      <trkpt lat="43.61117" lon="2.97578">
        <ele>864.27104812228</ele>
        <time>2016-11-12T14:09:50Z</time>
      </trkpt>
      <trkpt lat="43.61115" lon="2.97575">
        <ele>864.27104812228</ele>
        <time>2016-11-12T14:09:55Z</time>
      </trkpt>
      <trkpt lat="43.61111" lon="2.97569">
        <ele>867.43174869712</ele>
        <time>2016-11-12T14:10:00Z</time>
      </trkpt>
      <trkpt lat="43.61106" lon="2.97557">
        <ele>870.58726967773</ele>
        <time>2016-11-12T14:10:10Z</time>
      </trkpt>
      <trkpt lat="43.61093" lon="2.97525">
        <ele>873.50007563144</ele>
        <time>2016-11-12T14:10:43Z</time>
      </trkpt>
      <trkpt lat="43.61044" lon="2.97442">
        <ele>876.57061791339</ele>
        <time>2016-11-12T14:11:51Z</time>
      </trkpt>
      <trkpt lat="43.61035" lon="2.97434">
        <ele>879.46352939439</ele>
        <time>2016-11-12T14:11:51Z</time>
      </trkpt>
      <trkpt lat="43.6103" lon="2.97423">
        <ele>882.22904594844</ele>
        <time>2016-11-12T14:11:59Z</time>
      </trkpt>
      <trkpt lat="43.61029" lon="2.97422">
        <ele>882.22904594844</ele>
        <time>2016-11-12T14:12:00Z</time>
      </trkpt>
      <trkpt lat="43.61067" lon="2.97338">
        <ele>886.24009006554</ele>
        <time>2016-11-12T14:14:00Z</time>
      </trkpt>
      <trkpt lat="43.61077" lon="2.97331">
        <ele>889.72469247491</ele>
        <time>2016-11-12T14:15:25Z</time>
      </trkpt>
      <trkpt lat="43.6108" lon="2.97331">
        <ele>889.72469247491</ele>
        <time>2016-11-12T14:15:25Z</time>
      </trkpt>
      <trkpt lat="43.61079" lon="2.97328">
        <ele>889.72469247491</ele>
        <time>2016-11-12T14:15:40Z</time>
      </trkpt>
      <trkpt lat="43.61069" lon="2.97339">
        <ele>892.78648048978</ele>
        <time>2016-11-12T14:16:05Z</time>
      </trkpt>
      <trkpt lat="43.61063" lon="2.97347">
        <ele>892.78648048978</ele>
        <time>2016-11-12T14:16:10Z</time>
      </trkpt>
      <trkpt lat="43.61078" lon="2.97358">
        <ele>895.47963246021</ele>
        <time>2016-11-12T14:16:20Z</time>
      </trkpt>
      <trkpt lat="43.61089" lon="2.97352">
        <ele>897.82677098617</ele>
        <time>2016-11-12T14:16:25Z</time>
      </trkpt>
      <trkpt lat="43.61126" lon="2.97362">
        <ele>899.86444838005</ele>
        <time>2016-11-12T14:16:35Z</time>
      </trkpt>
      <trkpt lat="43.6114" lon="2.97366">
        <ele>901.59878160838</ele>
        <time>2016-11-12T14:16:40Z</time>
      </trkpt>
      <trkpt lat="43.61148" lon="2.97366">
        <ele>901.59878160838</ele>
        <time>2016-11-12T14:16:45Z</time>
      </trkpt>
      <trkpt lat="43.61144" lon="2.97362">
        <ele>903.05089545298</ele>
        <time>2016-11-12T14:16:50Z</time>
      </trkpt>
      <trkpt lat="43.60984" lon="2.9734">
        <ele>904.14046041964</ele>
        <time>2016-11-12T14:17:46Z</time>
      </trkpt>
      <trkpt lat="43.6097" lon="2.97335">
        <ele>904.99599069274</ele>
        <time>2016-11-12T14:17:46Z</time>
      </trkpt>
      <trkpt lat="43.60965" lon="2.97335">
        <ele>904.99599069274</ele>
        <time>2016-11-12T14:17:52Z</time>
      </trkpt>
      <trkpt lat="43.61022" lon="2.97305">
        <ele>868.96013748595</ele>
        <time>2016-11-12T14:19:00Z</time>
      </trkpt>
      <trkpt lat="43.61037" lon="2.97304">
        <ele>833.06011974593</ele>
        <time>2016-11-12T14:19:05Z</time>
      </trkpt>
      <trkpt lat="43.61087" lon="2.97366">
        <ele>838.89465020074</ele>
        <time>2016-11-12T14:19:30Z</time>
      </trkpt>
      <trkpt lat="43.6106" lon="2.97352">
        <ele>845.15255980386</ele>
        <time>2016-11-12T14:19:35Z</time>
      </trkpt>
      <trkpt lat="43.61056" lon="2.97329">
        <ele>851.42824280461</ele>
        <time>2016-11-12T14:19:45Z</time>
      </trkpt>
      <trkpt lat="43.61056" lon="2.97326">
        <ele>851.42824280461</ele>
        <time>2016-11-12T14:19:50Z</time>
      </trkpt>
      <trkpt lat="43.61064" lon="2.97332">
        <ele>858.31103954713</ele>
        <time>2016-11-12T14:20:00Z</time>
      </trkpt>
      <trkpt lat="43.61063" lon="2.9733">
        <ele>858.31103954713</ele>
        <time>2016-11-12T14:20:05Z</time>
      </trkpt>
      <trkpt lat="43.61072" lon="2.9733">
        <ele>864.03924129873</ele>
        <time>2016-11-12T14:22:20Z</time>
      </trkpt>
      <trkpt lat="43.61054" lon="2.97345">
        <ele>869.02996055312</ele>
        <time>2016-11-12T14:29:11Z</time>
      </trkpt>
      <trkpt lat="43.61063" lon="2.97337">
        <ele>873.7580515428</ele>
        <time>2016-11-12T14:29:35Z</time>
      </trkpt>
      <trkpt lat="43.61066" lon="2.97336">
        <ele>873.7580515428</ele>
        <time>2016-11-12T14:31:13Z</time>
      </trkpt>
      <trkpt lat="43.61091" lon="2.97346">
        <ele>878.14531913129</ele>
        <time>2016-11-12T14:31:35Z</time>
      </trkpt>
      <trkpt lat="43.61121" lon="2.97349">
        <ele>882.17785097312</ele>
        <time>2016-11-12T14:32:00Z</time>
      </trkpt>
      <trkpt lat="43.61079" lon="2.97327">
        <ele>885.52667992059</ele>
        <time>2016-11-12T14:34:51Z</time>
      </trkpt>
      <trkpt lat="43.61069" lon="2.97326">
        <ele>888.5662464752</ele>
        <time>2016-11-12T14:35:38Z</time>
      </trkpt>
      <trkpt lat="43.61079" lon="2.97331">
        <ele>891.21204341138</ele>
        <time>2016-11-12T14:37:00Z</time>
      </trkpt>
      <trkpt lat="43.6107" lon="2.97314">
        <ele>893.41573994112</ele>
        <time>2016-11-12T14:38:16Z</time>
      </trkpt>
      <trkpt lat="43.61078" lon="2.9733">
        <ele>894.52858170434</ele>
        <time>2016-11-12T14:48:44Z</time>
      </trkpt>
      <trkpt lat="43.61071" lon="2.97324">
        <ele>894.52858170434</ele>
        <time>2016-11-12T14:49:21Z</time>
      </trkpt>
      <trkpt lat="43.61067" lon="2.9733">
        <ele>895.00460124767</ele>
        <time>2016-11-12T14:56:11Z</time>
      </trkpt>
      <trkpt lat="43.61072" lon="2.97331">
        <ele>895.00460124767</ele>
        <time>2016-11-12T14:59:08Z</time>
      </trkpt>
      <trkpt lat="43.61081" lon="2.97328">
        <ele>894.97809978417</ele>
        <time>2016-11-12T15:02:44Z</time>
      </trkpt>
      <trkpt lat="43.61071" lon="2.97322">
        <ele>894.93525243075</ele>
        <time>2016-11-12T15:02:59Z</time>
      </trkpt>
      <trkpt lat="43.61074" lon="2.97332">
        <ele>894.93525243075</ele>
        <time>2016-11-12T15:03:20Z</time>
      </trkpt>
      <trkpt lat="43.61074" lon="2.97332">
        <ele>894.93525243075</ele>
        <time>2016-11-12T15:03:29Z</time>
      </trkpt>
      <trkpt lat="43.61073" lon="2.97326">
        <ele>894.85104198023</ele>
        <time>2016-11-12T15:03:46Z</time>
      </trkpt>
      <trkpt lat="43.61072" lon="2.97325">
        <ele>894.85104198023</ele>
        <time>2016-11-12T15:06:08Z</time>
      </trkpt>
      <trkpt lat="43.61066" lon="2.97328">
        <ele>894.85104198023</ele>
        <time>2016-11-12T15:10:40Z</time>
      </trkpt>
      <trkpt lat="43.61074" lon="2.97326">
        <ele>895.01948228942</ele>
        <time>2016-11-12T15:11:56Z</time>
      </trkpt>
      <trkpt lat="43.61069" lon="2.97328">
        <ele>895.01948228942</ele>
        <time>2016-11-12T15:12:38Z</time>
      </trkpt>
      <trkpt lat="43.61069" lon="2.97328">
        <ele>895.01948228942</ele>
        <time>2016-11-12T15:12:38Z</time>
      </trkpt>
      <trkpt lat="43.61063" lon="2.97325">
        <ele>894.96292473918</ele>
        <time>2016-11-12T15:13:00Z</time>
      </trkpt>
      <trkpt lat="43.61068" lon="2.97328">
        <ele>894.96292473918</ele>
        <time>2016-11-12T15:14:25Z</time>
      </trkpt>
      <trkpt lat="43.61071" lon="2.97326">
        <ele>894.96292473918</ele>
        <time>2016-11-12T15:14:41Z</time>
      </trkpt>
      <trkpt lat="43.61063" lon="2.97333">
        <ele>894.31150721777</ele>
        <time>2016-11-12T15:19:00Z</time>
      </trkpt>
      <trkpt lat="43.61061" lon="2.97335">
        <ele>894.31150721777</ele>
        <time>2016-11-12T15:19:05Z</time>
      </trkpt>
      <trkpt lat="43.6107" lon="2.97328">
        <ele>894.22296475364</ele>
        <time>2016-11-12T15:20:00Z</time>
      </trkpt>
      <trkpt lat="43.61067" lon="2.97334">
        <ele>894.22296475364</ele>
        <time>2016-11-12T15:22:00Z</time>
      </trkpt>
      <trkpt lat="43.61067" lon="2.97333">
        <ele>894.22296475364</ele>
        <time>2016-11-12T15:22:08Z</time>
      </trkpt>
      <trkpt lat="43.61067" lon="2.97326">
        <ele>894.42816646248</ele>
        <time>2016-11-12T15:23:02Z</time>
      </trkpt>
      <trkpt lat="43.61065" lon="2.9733">
        <ele>894.42816646248</ele>
        <time>2016-11-12T15:25:06Z</time>
      </trkpt>
      <trkpt lat="43.61064" lon="2.97329">
        <ele>894.42816646248</ele>
        <time>2016-11-12T15:31:58Z</time>
      </trkpt>
      <trkpt lat="43.61063" lon="2.97347">
        <ele>894.14370081325</ele>
        <time>2016-11-12T15:32:22Z</time>
      </trkpt>
      <trkpt lat="43.61169" lon="2.97303">
        <ele>876.34605202068</ele>
        <time>2016-11-12T15:33:52Z</time>
      </trkpt>
      <trkpt lat="43.61142" lon="2.97287">
        <ele>860.24380867957</ele>
        <time>2016-11-12T15:34:12Z</time>
      </trkpt>
      <trkpt lat="43.6114" lon="2.97291">
        <ele>860.24380867957</ele>
        <time>2016-11-12T15:34:16Z</time>
      </trkpt>
      <trkpt lat="43.61072" lon="2.97337">
        <ele>860.73295123713</ele>
        <time>2016-11-12T15:37:00Z</time>
      </trkpt>
      <trkpt lat="43.61072" lon="2.97321">
        <ele>862.41475207509</ele>
        <time>2016-11-12T15:37:50Z</time>
      </trkpt>
      <trkpt lat="43.61074" lon="2.97346">
        <ele>863.87277069434</ele>
        <time>2016-11-12T15:38:52Z</time>
      </trkpt>
      <trkpt lat="43.61053" lon="2.97335">
        <ele>865.25050529801</ele>
        <time>2016-11-12T15:39:02Z</time>
      </trkpt>
      <trkpt lat="43.61051" lon="2.97335">
        <ele>865.25050529801</ele>
        <time>2016-11-12T15:39:05Z</time>
      </trkpt>
      <trkpt lat="43.61072" lon="2.97339">
        <ele>866.60884656693</ele>
        <time>2016-11-12T15:39:22Z</time>
      </trkpt>
      <trkpt lat="43.61083" lon="2.97333">
        <ele>867.85994589625</ele>
        <time>2016-11-12T15:39:35Z</time>
      </trkpt>
      <trkpt lat="43.61075" lon="2.97314">
        <ele>869.0954569906</ele>
        <time>2016-11-12T15:40:10Z</time>
      </trkpt>
      <trkpt lat="43.61061" lon="2.9732">
        <ele>869.96784768999</ele>
        <time>2016-11-12T15:40:58Z</time>
      </trkpt>
      <trkpt lat="43.6107" lon="2.97333">
        <ele>870.86213552314</ele>
        <time>2016-11-12T15:41:36Z</time>
      </trkpt>
      <trkpt lat="43.61062" lon="2.97342">
        <ele>871.77459043019</ele>
        <time>2016-11-12T15:41:36Z</time>
      </trkpt>
      <trkpt lat="43.61061" lon="2.97337">
        <ele>871.77459043019</ele>
        <time>2016-11-12T15:42:01Z</time>
      </trkpt>
      <trkpt lat="43.61086" lon="2.97333">
        <ele>872.68718562973</ele>
        <time>2016-11-12T15:42:46Z</time>
      </trkpt>
      <trkpt lat="43.61092" lon="2.97327">
        <ele>872.68718562973</ele>
        <time>2016-11-12T15:42:46Z</time>
      </trkpt>
      <trkpt lat="43.61093" lon="2.973">
        <ele>873.61194688693</ele>
        <time>2016-11-12T15:43:02Z</time>
      </trkpt>
      <trkpt lat="43.61092" lon="2.97299">
        <ele>873.61194688693</ele>
        <time>2016-11-12T15:43:02Z</time>
      </trkpt>
      <trkpt lat="43.61082" lon="2.97307">
        <ele>874.55990327394</ele>
        <time>2016-11-12T15:43:51Z</time>
      </trkpt>
      <trkpt lat="43.61076" lon="2.97314">
        <ele>874.55990327394</ele>
        <time>2016-11-12T15:43:51Z</time>
      </trkpt>
      <trkpt lat="43.6108" lon="2.97326">
        <ele>875.62760995149</ele>
        <time>2016-11-12T15:45:07Z</time>
      </trkpt>
      <trkpt lat="43.61071" lon="2.97305">
        <ele>876.68797432729</ele>
        <time>2016-11-12T15:46:00Z</time>
      </trkpt>
      <trkpt lat="43.6109" lon="2.97324">
        <ele>877.69527648458</ele>
        <time>2016-11-12T15:46:32Z</time>
      </trkpt>
      <trkpt lat="43.61081" lon="2.97334">
        <ele>878.7081539731</ele>
        <time>2016-11-12T15:47:00Z</time>
      </trkpt>
      <trkpt lat="43.6109" lon="2.97319">
        <ele>879.66561554194</ele>
        <time>2016-11-12T15:47:54Z</time>
      </trkpt>
      <trkpt lat="43.61092" lon="2.97315">
        <ele>879.66561554194</ele>
        <time>2016-11-12T15:47:56Z</time>
      </trkpt>
      <trkpt lat="43.61059" lon="2.97207">
        <ele>880.66982144522</ele>
        <time>2016-11-12T15:49:01Z</time>
      </trkpt>
      <trkpt lat="43.6106" lon="2.97206">
        <ele>880.66982144522</ele>
        <time>2016-11-12T15:49:02Z</time>
      </trkpt>
    </trkseg>
  </trk>
</gpx>